2016 Cux-Wetter.de -Die Nutzung der Wetterdaten nur mit ausdrcklicher Genehmigung
Wetterdaten: Freitag, 21.04.2017
Datum Zeit Temp. A. Feuchte A. Luftdruck Regen Wind Richtung Richtung Sonnenschein Solar Taupunkt Windchill Windben
21.04.2017 00:00 8,8 C 83 % 1028,9 hPa 0,0 l/m 13,2 km/h (3 Bft) SW 236 0 min 0 W/m 6,1 C 4,5 C 19,3 km/h (3 Bft)
21.04.2017 00:03 8,8 C 83 % 1028,9 hPa 0,0 l/m 13,9 km/h (3 Bft) SW 227 0 min 0 W/m 6,1 C 4,2 C 20,9 km/h (4 Bft)
21.04.2017 00:06 8,8 C 84 % 1028,9 hPa 0,0 l/m 11,6 km/h (2 Bft) W-SW 242 0 min 0 W/m 6,2 C 5,3 C 17,7 km/h (3 Bft)
21.04.2017 00:09 8,8 C 84 % 1028,8 hPa 0,0 l/m 12,5 km/h (2 Bft) W-SW 251 0 min 0 W/m 6,2 C 4,9 C 20,9 km/h (4 Bft)
21.04.2017 00:12 8,8 C 83 % 1028,8 hPa 0,0 l/m 13,5 km/h (3 Bft) W-SW 237 0 min 0 W/m 6,1 C 4,4 C 22,5 km/h (4 Bft)
21.04.2017 00:15 8,7 C 83 % 1028,9 hPa 0,0 l/m 13,6 km/h (3 Bft) SW 234 0 min 0 W/m 6,0 C 4,2 C 27,4 km/h (5 Bft)
21.04.2017 00:18 8,7 C 83 % 1028,8 hPa 0,0 l/m 14,0 km/h (3 Bft) SW 223 0 min 0 W/m 6,0 C 4,0 C 22,5 km/h (4 Bft)
21.04.2017 00:21 8,7 C 83 % 1028,6 hPa 0,0 l/m 16,0 km/h (3 Bft) SW 235 0 min 0 W/m 6,0 C 3,1 C 20,9 km/h (4 Bft)
21.04.2017 00:24 8,7 C 83 % 1028,6 hPa 0,0 l/m 12,2 km/h (2 Bft) S-SW 204 0 min 0 W/m 6,0 C 4,9 C 20,9 km/h (4 Bft)
21.04.2017 00:27 8,7 C 83 % 1028,6 hPa 0,0 l/m 13,8 km/h (3 Bft) W 259 0 min 0 W/m 6,0 C 4,1 C 22,5 km/h (4 Bft)
21.04.2017 00:30 8,7 C 83 % 1028,6 hPa 0,0 l/m 15,1 km/h (3 Bft) SW 232 0 min 0 W/m 6,0 C 3,5 C 24,1 km/h (4 Bft)
21.04.2017 00:33 8,7 C 83 % 1028,6 hPa 0,0 l/m 13,5 km/h (3 Bft) SW 221 0 min 0 W/m 6,0 C 4,3 C 20,9 km/h (4 Bft)
21.04.2017 00:36 8,7 C 83 % 1028,6 hPa 0,0 l/m 11,9 km/h (2 Bft) W-SW 237 0 min 0 W/m 6,0 C 5,1 C 22,5 km/h (4 Bft)
21.04.2017 00:39 8,7 C 83 % 1028,6 hPa 0,0 l/m 13,2 km/h (3 Bft) SW 217 0 min 0 W/m 6,0 C 4,4 C 22,5 km/h (4 Bft)
21.04.2017 00:42 8,7 C 83 % 1028,5 hPa 0,0 l/m 14,1 km/h (3 Bft) W-SW 242 0 min 0 W/m 6,0 C 4,0 C 24,1 km/h (4 Bft)
21.04.2017 00:45 8,6 C 83 % 1028,5 hPa 0,0 l/m 15,6 km/h (3 Bft) SW 229 0 min 0 W/m 5,9 C 3,2 C 24,1 km/h (4 Bft)
21.04.2017 00:48 8,6 C 83 % 1028,4 hPa 0,0 l/m 13,3 km/h (3 Bft) W-SW 239 0 min 0 W/m 5,9 C 4,2 C 24,1 km/h (4 Bft)
21.04.2017 00:51 8,6 C 83 % 1028,3 hPa 0,0 l/m 17,2 km/h (3 Bft) W-SW 256 0 min 0 W/m 5,9 C 2,5 C 25,7 km/h (4 Bft)
21.04.2017 00:54 8,6 C 83 % 1028,3 hPa 0,0 l/m 13,4 km/h (3 Bft) SW 224 0 min 0 W/m 5,9 C 4,2 C 19,3 km/h (3 Bft)
21.04.2017 00:57 8,6 C 83 % 1028,3 hPa 0,0 l/m 14,9 km/h (3 Bft) W-SW 249 0 min 0 W/m 5,9 C 3,5 C 24,1 km/h (4 Bft)
21.04.2017 01:00 8,6 C 83 % 1028,3 hPa 0,0 l/m 12,4 km/h (2 Bft) SW 236 0 min 0 W/m 5,9 C 4,7 C 20,9 km/h (4 Bft)
21.04.2017 01:03 8,6 C 83 % 1028,2 hPa 0,0 l/m 13,4 km/h (3 Bft) S 187 0 min 0 W/m 5,9 C 4,2 C 22,5 km/h (4 Bft)
21.04.2017 01:06 8,5 C 84 % 1028,2 hPa 0,0 l/m 14,5 km/h (3 Bft) W-SW 238 0 min 0 W/m 6,0 C 3,5 C 24,1 km/h (4 Bft)
21.04.2017 01:09 8,5 C 84 % 1028,1 hPa 0,0 l/m 12,3 km/h (2 Bft) W-SW 245 0 min 0 W/m 6,0 C 4,6 C 22,5 km/h (4 Bft)
21.04.2017 01:12 8,5 C 84 % 1028,2 hPa 0,0 l/m 14,5 km/h (3 Bft) SW 222 0 min 0 W/m 6,0 C 3,5 C 24,1 km/h (4 Bft)
21.04.2017 01:15 8,5 C 84 % 1028,2 hPa 0,0 l/m 14,4 km/h (3 Bft) S-SW 213 0 min 0 W/m 6,0 C 3,6 C 20,9 km/h (4 Bft)
21.04.2017 01:18 8,5 C 84 % 1028,1 hPa 0,0 l/m 14,1 km/h (3 Bft) W-SW 246 0 min 0 W/m 6,0 C 3,7 C 22,5 km/h (4 Bft)
21.04.2017 01:21 8,5 C 85 % 1028,1 hPa 0,0 l/m 13,9 km/h (3 Bft) W 277 0 min 0 W/m 6,1 C 3,8 C 25,7 km/h (4 Bft)
21.04.2017 01:24 8,5 C 85 % 1028,1 hPa 0,0 l/m 13,1 km/h (3 Bft) SW 225 0 min 0 W/m 6,1 C 4,2 C 20,9 km/h (4 Bft)
21.04.2017 01:27 8,4 C 85 % 1028,0 hPa 0,0 l/m 12,7 km/h (3 Bft) W-SW 238 0 min 0 W/m 6,0 C 4,3 C 17,7 km/h (3 Bft)
21.04.2017 01:30 8,4 C 85 % 1028,0 hPa 0,0 l/m 12,7 km/h (3 Bft) W-SW 248 0 min 0 W/m 6,0 C 4,3 C 20,9 km/h (4 Bft)
21.04.2017 01:33 8,4 C 86 % 1028,0 hPa 0,0 l/m 14,8 km/h (3 Bft) W-SW 244 0 min 0 W/m 6,2 C 3,3 C 22,5 km/h (4 Bft)
21.04.2017 01:36 8,4 C 86 % 1028,0 hPa 0,0 l/m 11,8 km/h (2 Bft) SW 236 0 min 0 W/m 6,2 C 4,8 C 19,3 km/h (3 Bft)
21.04.2017 01:39 8,4 C 85 % 1027,9 hPa 0,0 l/m 9,3 km/h (2 Bft) W-SW 252 0 min 0 W/m 6,0 C 6,3 C 17,7 km/h (3 Bft)
21.04.2017 01:42 8,4 C 86 % 1027,9 hPa 0,0 l/m 13,7 km/h (3 Bft) SW 229 0 min 0 W/m 6,2 C 3,8 C 22,5 km/h (4 Bft)
21.04.2017 01:45 8,3 C 86 % 1027,9 hPa 0,0 l/m 13,7 km/h (3 Bft) W-SW 254 0 min 0 W/m 6,1 C 3,7 C 22,5 km/h (4 Bft)
21.04.2017 01:48 8,3 C 86 % 1027,9 hPa 0,0 l/m 13,7 km/h (3 Bft) SW 232 0 min 0 W/m 6,1 C 3,7 C 20,9 km/h (4 Bft)
21.04.2017 01:51 8,4 C 86 % 1027,8 hPa 0,0 l/m 11,5 km/h (2 Bft) SW 232 0 min 0 W/m 6,2 C 4,9 C 17,7 km/h (3 Bft)
21.04.2017 01:54 8,4 C 87 % 1027,8 hPa 0,0 l/m 11,7 km/h (2 Bft) SW 222 0 min 0 W/m 6,4 C 4,8 C 20,9 km/h (4 Bft)
21.04.2017 01:57 8,4 C 87 % 1027,7 hPa 0,0 l/m 10,8 km/h (2 Bft) S-SW 211 0 min 0 W/m 6,4 C 5,3 C 22,5 km/h (4 Bft)
21.04.2017 02:00 8,4 C 87 % 1027,7 hPa 0,0 l/m 11,5 km/h (2 Bft) SW 223 0 min 0 W/m 6,4 C 4,9 C 17,7 km/h (3 Bft)
21.04.2017 02:03 8,4 C 87 % 1027,6 hPa 0,0 l/m 11,6 km/h (2 Bft) SW 219 0 min 0 W/m 6,4 C 4,9 C 17,7 km/h (3 Bft)
21.04.2017 02:06 8,4 C 88 % 1027,6 hPa 0,0 l/m 12,9 km/h (3 Bft) S-SW 209 0 min 0 W/m 6,5 C 4,2 C 20,9 km/h (4 Bft)
21.04.2017 02:09 8,3 C 88 % 1027,6 hPa 0,0 l/m 9,6 km/h (2 Bft) SW 220 0 min 0 W/m 6,4 C 6,0 C 16,1 km/h (3 Bft)
21.04.2017 02:12 8,3 C 89 % 1027,6 hPa 0,0 l/m 10,8 km/h (2 Bft) W-SW 238 0 min 0 W/m 6,6 C 5,2 C 17,7 km/h (3 Bft)
21.04.2017 02:15 8,3 C 89 % 1027,6 hPa 0,0 l/m 11,4 km/h (2 Bft) W-SW 246 0 min 0 W/m 6,6 C 4,9 C 17,7 km/h (3 Bft)
21.04.2017 02:18 8,3 C 90 % 1027,5 hPa 0,0 l/m 12,2 km/h (2 Bft) W-NW 282 0 min 0 W/m 6,8 C 4,4 C 20,9 km/h (4 Bft)
21.04.2017 02:21 8,3 C 90 % 1027,4 hPa 0,0 l/m 13,1 km/h (3 Bft) W 267 0 min 0 W/m 6,8 C 4,0 C 22,5 km/h (4 Bft)
21.04.2017 02:24 8,3 C 90 % 1027,4 hPa 0,0 l/m 11,8 km/h (2 Bft) W-SW 241 0 min 0 W/m 6,8 C 4,7 C 20,9 km/h (4 Bft)
21.04.2017 02:27 8,3 C 90 % 1027,4 hPa 0,0 l/m 10,5 km/h (2 Bft) SW 217 0 min 0 W/m 6,8 C 5,4 C 22,5 km/h (4 Bft)
21.04.2017 02:30 8,2 C 90 % 1027,4 hPa 0,0 l/m 10,0 km/h (2 Bft) W-SW 246 0 min 0 W/m 6,7 C 5,6 C 16,1 km/h (3 Bft)
21.04.2017 02:33 8,2 C 91 % 1027,3 hPa 0,0 l/m 7,9 km/h (2 Bft) SW 220 0 min 0 W/m 6,8 C 7,0 C 14,5 km/h (3 Bft)
21.04.2017 02:36 8,2 C 91 % 1027,3 hPa 0,0 l/m 11,4 km/h (2 Bft) SW 236 0 min 0 W/m 6,8 C 4,8 C 19,3 km/h (3 Bft)
21.04.2017 02:39 8,2 C 91 % 1027,2 hPa 0,0 l/m 12,1 km/h (2 Bft) W 278 0 min 0 W/m 6,8 C 4,4 C 20,9 km/h (4 Bft)
21.04.2017 02:42 8,2 C 91 % 1027,2 hPa 0,0 l/m 11,2 km/h (2 Bft) SW 215 0 min 0 W/m 6,8 C 4,9 C 17,7 km/h (3 Bft)
21.04.2017 02:45 8,2 C 92 % 1027,2 hPa 0,0 l/m 10,5 km/h (2 Bft) S-SW 203 0 min 0 W/m 7,0 C 5,3 C 19,3 km/h (3 Bft)
21.04.2017 02:48 8,2 C 92 % 1027,2 hPa 0,0 l/m 10,1 km/h (2 Bft) SW 227 0 min 0 W/m 7,0 C 5,5 C 20,9 km/h (4 Bft)
21.04.2017 02:51 8,2 C 92 % 1027,1 hPa 0,0 l/m 11,6 km/h (2 Bft) SW 235 0 min 0 W/m 7,0 C 4,7 C 19,3 km/h (3 Bft)
21.04.2017 02:54 8,3 C 92 % 1027,1 hPa 0,0 l/m 11,8 km/h (2 Bft) W-SW 247 0 min 0 W/m 7,1 C 4,7 C 20,9 km/h (4 Bft)
21.04.2017 02:57 8,3 C 93 % 1027,1 hPa 0,0 l/m 11,0 km/h (2 Bft) S-SW 207 0 min 0 W/m 7,2 C 5,1 C 19,3 km/h (3 Bft)
21.04.2017 03:00 8,3 C 93 % 1027,0 hPa 0,0 l/m 12,0 km/h (2 Bft) SW 231 0 min 0 W/m 7,2 C 4,6 C 19,3 km/h (3 Bft)
21.04.2017 03:03 8,4 C 93 % 1027,0 hPa 0,0 l/m 13,4 km/h (3 Bft) W-NW 300 0 min 0 W/m 7,3 C 3,9 C 22,5 km/h (4 Bft)
21.04.2017 03:06 8,4 C 93 % 1027,0 hPa 0,0 l/m 9,8 km/h (2 Bft) W-SW 239 0 min 0 W/m 7,3 C 6,0 C 22,5 km/h (4 Bft)
21.04.2017 03:09 8,4 C 93 % 1027,0 hPa 0,0 l/m 10,4 km/h (2 Bft) W-SW 252 0 min 0 W/m 7,3 C 5,6 C 17,7 km/h (3 Bft)
21.04.2017 03:12 8,4 C 93 % 1026,9 hPa 0,0 l/m 11,3 km/h (2 Bft) SW 226 0 min 0 W/m 7,3 C 5,1 C 22,5 km/h (4 Bft)
21.04.2017 03:15 8,4 C 93 % 1026,9 hPa 0,0 l/m 10,8 km/h (2 Bft) W-NW 283 0 min 0 W/m 7,3 C 5,3 C 19,3 km/h (3 Bft)
21.04.2017 03:18 8,5 C 93 % 1026,9 hPa 0,0 l/m 8,1 km/h (2 Bft) W 267 0 min 0 W/m 7,4 C 7,2 C 17,7 km/h (3 Bft)
21.04.2017 03:21 8,5 C 93 % 1026,8 hPa 0,0 l/m 11,2 km/h (2 Bft) S-SW 207 0 min 0 W/m 7,4 C 5,2 C 19,3 km/h (3 Bft)
21.04.2017 03:24 8,5 C 93 % 1026,8 hPa 0,0 l/m 10,5 km/h (2 Bft) W-SW 251 0 min 0 W/m 7,4 C 5,6 C 19,3 km/h (3 Bft)
21.04.2017 03:27 8,5 C 94 % 1026,8 hPa 0,0 l/m 10,5 km/h (2 Bft) W-SW 239 0 min 0 W/m 7,6 C 5,6 C 19,3 km/h (3 Bft)
21.04.2017 03:30 8,5 C 94 % 1026,7 hPa 0,0 l/m 9,7 km/h (2 Bft) W-SW 254 0 min 0 W/m 7,6 C 6,1 C 17,7 km/h (3 Bft)
21.04.2017 03:33 8,6 C 94 % 1026,7 hPa 0,0 l/m 10,2 km/h (2 Bft) SW 215 0 min 0 W/m 7,7 C 5,9 C 17,7 km/h (3 Bft)
21.04.2017 03:36 8,6 C 94 % 1026,7 hPa 0,0 l/m 11,2 km/h (2 Bft) W-SW 254 0 min 0 W/m 7,7 C 5,3 C 20,9 km/h (4 Bft)
21.04.2017 03:39 8,6 C 94 % 1026,7 hPa 0,0 l/m 12,5 km/h (2 Bft) W-SW 238 0 min 0 W/m 7,7 C 4,6 C 19,3 km/h (3 Bft)
21.04.2017 03:42 8,6 C 94 % 1026,7 hPa 0,0 l/m 8,4 km/h (2 Bft) W-SW 237 0 min 0 W/m 7,7 C 7,1 C 16,1 km/h (3 Bft)
21.04.2017 03:45 8,6 C 94 % 1026,7 hPa 0,0 l/m 11,4 km/h (2 Bft) SW 215 0 min 0 W/m 7,7 C 5,2 C 16,1 km/h (3 Bft)
21.04.2017 03:48 8,6 C 94 % 1026,5 hPa 0,0 l/m 12,6 km/h (3 Bft) W-SW 244 0 min 0 W/m 7,7 C 4,6 C 22,5 km/h (4 Bft)
21.04.2017 03:51 8,6 C 94 % 1026,5 hPa 0,0 l/m 11,4 km/h (2 Bft) SW 229 0 min 0 W/m 7,7 C 5,2 C 20,9 km/h (4 Bft)
21.04.2017 03:54 8,7 C 94 % 1026,5 hPa 0,0 l/m 9,5 km/h (2 Bft) SW 223 0 min 0 W/m 7,8 C 6,5 C 14,5 km/h (3 Bft)
21.04.2017 03:57 8,7 C 94 % 1026,5 hPa 0,0 l/m 8,8 km/h (2 Bft) S-SW 206 0 min 0 W/m 7,8 C 6,9 C 17,7 km/h (3 Bft)
21.04.2017 04:00 8,7 C 94 % 1026,5 hPa 0,0 l/m 10,1 km/h (2 Bft) SW 230 0 min 0 W/m 7,8 C 6,1 C 22,5 km/h (4 Bft)
21.04.2017 04:03 8,7 C 94 % 1026,5 hPa 0,0 l/m 9,9 km/h (2 Bft) W-SW 252 0 min 0 W/m 7,8 C 6,2 C 16,1 km/h (3 Bft)
21.04.2017 04:06 8,7 C 94 % 1026,4 hPa 0,0 l/m 10,5 km/h (2 Bft) SW 232 0 min 0 W/m 7,8 C 5,9 C 17,7 km/h (3 Bft)
21.04.2017 04:09 8,7 C 94 % 1026,4 hPa 0,0 l/m 10,7 km/h (2 Bft) W-SW 254 0 min 0 W/m 7,8 C 5,7 C 17,7 km/h (3 Bft)
21.04.2017 04:12 8,7 C 94 % 1026,4 hPa 0,0 l/m 9,7 km/h (2 Bft) SW 228 0 min 0 W/m 7,8 C 6,3 C 17,7 km/h (3 Bft)
21.04.2017 04:15 8,7 C 95 % 1026,4 hPa 0,0 l/m 9,3 km/h (2 Bft) W-SW 238 0 min 0 W/m 7,9 C 6,6 C 19,3 km/h (3 Bft)
21.04.2017 04:18 8,8 C 95 % 1026,4 hPa 0,0 l/m 12,0 km/h (2 Bft) W 259 0 min 0 W/m 8,0 C 5,1 C 22,5 km/h (4 Bft)
21.04.2017 04:21 8,9 C 95 % 1026,3 hPa 0,0 l/m 10,4 km/h (2 Bft) SW 229 0 min 0 W/m 8,1 C 6,1 C 17,7 km/h (3 Bft)
21.04.2017 04:24 8,9 C 95 % 1026,2 hPa 0,0 l/m 13,7 km/h (3 Bft) W 271 0 min 0 W/m 8,1 C 4,4 C 24,1 km/h (4 Bft)
21.04.2017 04:27 8,9 C 95 % 1026,2 hPa 0,0 l/m 13,6 km/h (3 Bft) W 266 0 min 0 W/m 8,1 C 4,4 C 22,5 km/h (4 Bft)
21.04.2017 04:30 8,9 C 95 % 1026,2 hPa 0,0 l/m 11,9 km/h (2 Bft) W-SW 240 0 min 0 W/m 8,1 C 5,3 C 20,9 km/h (4 Bft)
21.04.2017 04:33 8,9 C 95 % 1026,1 hPa 0,0 l/m 10,8 km/h (2 Bft) W-NW 297 0 min 0 W/m 8,1 C 5,9 C 20,9 km/h (4 Bft)
21.04.2017 04:36 8,9 C 95 % 1026,1 hPa 0,0 l/m 13,4 km/h (3 Bft) W 263 0 min 0 W/m 8,1 C 4,5 C 27,4 km/h (5 Bft)
21.04.2017 04:39 8,9 C 95 % 1026,1 hPa 0,0 l/m 14,0 km/h (3 Bft) W-NW 288 0 min 0 W/m 8,1 C 4,3 C 24,1 km/h (4 Bft)
21.04.2017 04:42 8,9 C 95 % 1026,1 hPa 0,0 l/m 11,9 km/h (2 Bft) W-SW 250 0 min 0 W/m 8,1 C 5,3 C 25,7 km/h (4 Bft)
21.04.2017 04:45 8,9 C 95 % 1026,0 hPa 0,0 l/m 16,2 km/h (3 Bft) W 276 0 min 0 W/m 8,1 C 3,3 C 27,4 km/h (5 Bft)
21.04.2017 04:48 8,9 C 95 % 1026,0 hPa 0,0 l/m 12,0 km/h (2 Bft) W-SW 252 0 min 0 W/m 8,1 C 5,2 C 24,1 km/h (4 Bft)
21.04.2017 04:51 8,9 C 95 % 1025,9 hPa 0,0 l/m 11,9 km/h (2 Bft) W 261 0 min 0 W/m 8,1 C 5,3 C 22,5 km/h (4 Bft)
21.04.2017 04:54 8,9 C 95 % 1025,9 hPa 0,0 l/m 13,7 km/h (3 Bft) SW 229 0 min 0 W/m 8,1 C 4,4 C 22,5 km/h (4 Bft)
21.04.2017 04:57 8,9 C 95 % 1025,9 hPa 0,0 l/m 12,2 km/h (2 Bft) W-SW 252 0 min 0 W/m 8,1 C 5,1 C 22,5 km/h (4 Bft)
21.04.2017 05:00 8,9 C 95 % 1025,8 hPa 0,0 l/m 11,2 km/h (2 Bft) W 277 0 min 0 W/m 8,1 C 5,7 C 17,7 km/h (3 Bft)
21.04.2017 05:03 8,9 C 95 % 1025,8 hPa 0,0 l/m 11,0 km/h (2 Bft) W-SW 239 0 min 0 W/m 8,1 C 5,8 C 19,3 km/h (3 Bft)
21.04.2017 05:06 8,9 C 95 % 1025,9 hPa 0,0 l/m 13,2 km/h (3 Bft) W-SW 257 0 min 0 W/m 8,1 C 4,6 C 25,7 km/h (4 Bft)
21.04.2017 05:09 8,9 C 95 % 1025,8 hPa 0,0 l/m 11,3 km/h (2 Bft) W-SW 255 0 min 0 W/m 8,1 C 5,6 C 19,3 km/h (3 Bft)
21.04.2017 05:12 8,9 C 95 % 1025,7 hPa 0,0 l/m 13,3 km/h (3 Bft) SW 227 0 min 0 W/m 8,1 C 4,6 C 22,5 km/h (4 Bft)
21.04.2017 05:15 8,9 C 95 % 1025,8 hPa 0,0 l/m 12,7 km/h (3 Bft) W-SW 252 0 min 0 W/m 8,1 C 4,9 C 22,5 km/h (4 Bft)
21.04.2017 05:18 9,0 C 95 % 1025,7 hPa 0,0 l/m 12,4 km/h (2 Bft) W-SW 254 0 min 0 W/m 8,2 C 5,2 C 25,7 km/h (4 Bft)
21.04.2017 05:21 9,0 C 95 % 1025,6 hPa 0,0 l/m 12,9 km/h (3 Bft) SW 235 0 min 0 W/m 8,2 C 4,9 C 22,5 km/h (4 Bft)
21.04.2017 05:24 8,9 C 95 % 1025,6 hPa 0,0 l/m 10,8 km/h (2 Bft) W-NW 290 0 min 0 W/m 8,1 C 5,9 C 20,9 km/h (4 Bft)
21.04.2017 05:27 8,9 C 95 % 1025,6 hPa 0,0 l/m 10,7 km/h (2 Bft) W 263 0 min 0 W/m 8,1 C 6,0 C 20,9 km/h (4 Bft)
21.04.2017 05:30 8,9 C 95 % 1025,6 hPa 0,0 l/m 9,2 km/h (2 Bft) W-SW 242 0 min 0 W/m 8,1 C 6,9 C 16,1 km/h (3 Bft)
21.04.2017 05:33 8,9 C 95 % 1025,6 hPa 0,0 l/m 11,2 km/h (2 Bft) W 268 0 min 0 W/m 8,1 C 5,7 C 27,4 km/h (5 Bft)
21.04.2017 05:36 8,9 C 95 % 1025,6 hPa 0,0 l/m 12,9 km/h (3 Bft) W 275 0 min 0 W/m 8,1 C 4,8 C 25,7 km/h (4 Bft)
21.04.2017 05:39 8,9 C 95 % 1025,6 hPa 0,0 l/m 10,4 km/h (2 Bft) W 277 0 min 0 W/m 8,1 C 6,1 C 19,3 km/h (3 Bft)
21.04.2017 05:42 8,8 C 95 % 1025,6 hPa 0,0 l/m 10,4 km/h (2 Bft) W 275 0 min 0 W/m 8,0 C 6,0 C 19,3 km/h (3 Bft)
21.04.2017 05:45 8,8 C 95 % 1025,6 hPa 0,0 l/m 10,6 km/h (2 Bft) W 273 0 min 0 W/m 8,0 C 5,9 C 20,9 km/h (4 Bft)
21.04.2017 05:48 8,8 C 95 % 1025,5 hPa 0,0 l/m 9,6 km/h (2 Bft) W 263 0 min 0 W/m 8,0 C 6,5 C 19,3 km/h (3 Bft)
21.04.2017 05:51 8,8 C 95 % 1025,5 hPa 0,0 l/m 10,5 km/h (2 Bft) W-SW 245 0 min 0 W/m 8,0 C 6,0 C 16,1 km/h (3 Bft)
21.04.2017 05:54 8,8 C 95 % 1025,5 hPa 0,0 l/m 8,7 km/h (2 Bft) W-SW 240 0 min 0 W/m 8,0 C 7,1 C 16,1 km/h (3 Bft)
21.04.2017 05:57 8,8 C 95 % 1025,4 hPa 0,0 l/m 6,5 km/h (2 Bft) W-SW 247 0 min 0 W/m 8,0 C 8,7 C 12,9 km/h (3 Bft)
21.04.2017 06:00 8,8 C 95 % 1025,3 hPa 0,0 l/m 7,9 km/h (2 Bft) SW 229 0 min 0 W/m 8,0 C 7,7 C 20,9 km/h (4 Bft)
21.04.2017 06:03 8,8 C 95 % 1025,3 hPa 0,0 l/m 8,6 km/h (2 Bft) W-SW 254 0 min 0 W/m 8,0 C 7,2 C 16,1 km/h (3 Bft)
21.04.2017 06:06 8,8 C 95 % 1025,3 hPa 0,0 l/m 9,3 km/h (2 Bft) SW 224 0 min 0 W/m 8,0 C 6,7 C 20,9 km/h (4 Bft)
21.04.2017 06:09 8,8 C 95 % 1025,3 hPa 0,0 l/m 12,7 km/h (3 Bft) W-SW 255 0 min 0 W/m 8,0 C 4,8 C 22,5 km/h (4 Bft)
21.04.2017 06:12 8,8 C 95 % 1025,3 hPa 0,0 l/m 9,6 km/h (2 Bft) SW 218 0 min 0 W/m 8,0 C 6,5 C 16,1 km/h (3 Bft)
21.04.2017 06:15 8,8 C 95 % 1025,2 hPa 0,0 l/m 10,3 km/h (2 Bft) W 273 0 min 0 W/m 8,0 C 6,1 C 17,7 km/h (3 Bft)
21.04.2017 06:18 8,8 C 95 % 1025,2 hPa 0,0 l/m 10,6 km/h (2 Bft) W 271 0 min 0 W/m 8,0 C 5,9 C 20,9 km/h (4 Bft)
21.04.2017 06:21 8,8 C 95 % 1025,2 hPa 0,0 l/m 10,3 km/h (2 Bft) W-SW 257 0 min 0 W/m 8,0 C 6,1 C 22,5 km/h (4 Bft)
21.04.2017 06:24 8,8 C 95 % 1025,3 hPa 0,0 l/m 8,2 km/h (2 Bft) SW 234 0 min 0 W/m 8,0 C 7,5 C 16,1 km/h (3 Bft)
21.04.2017 06:27 8,8 C 95 % 1025,3 hPa 0,0 l/m 13,6 km/h (3 Bft) SW 234 0 min 0 W/m 8,0 C 4,3 C 20,9 km/h (4 Bft)
21.04.2017 06:30 8,8 C 95 % 1025,3 hPa 0,0 l/m 10,4 km/h (2 Bft) W-SW 255 0 min 0 W/m 8,0 C 6,0 C 17,7 km/h (3 Bft)
21.04.2017 06:33 8,8 C 95 % 1025,3 hPa 0,0 l/m 10,5 km/h (2 Bft) W-NW 284 0 min 5 W/m 8,0 C 6,0 C 16,1 km/h (3 Bft)
21.04.2017 06:36 8,8 C 95 % 1025,3 hPa 0,0 l/m 10,4 km/h (2 Bft) W-SW 240 0 min 5 W/m 8,0 C 6,0 C 19,3 km/h (3 Bft)
21.04.2017 06:39 8,8 C 95 % 1025,3 hPa 0,0 l/m 8,0 km/h (2 Bft) W-NW 289 0 min 7 W/m 8,0 C 7,6 C 16,1 km/h (3 Bft)
21.04.2017 06:42 8,8 C 95 % 1025,3 hPa 0,0 l/m 11,4 km/h (2 Bft) W 279 0 min 7 W/m 8,0 C 5,5 C 17,7 km/h (3 Bft)
21.04.2017 06:45 8,8 C 95 % 1025,2 hPa 0,0 l/m 12,2 km/h (2 Bft) SW 221 0 min 9 W/m 8,0 C 5,0 C 19,3 km/h (3 Bft)
21.04.2017 06:48 8,8 C 95 % 1025,3 hPa 0,0 l/m 10,6 km/h (2 Bft) SW 226 0 min 12 W/m 8,0 C 5,9 C 19,3 km/h (3 Bft)
21.04.2017 06:51 8,8 C 95 % 1025,2 hPa 0,0 l/m 8,5 km/h (2 Bft) W-SW 238 0 min 12 W/m 8,0 C 7,2 C 16,1 km/h (3 Bft)
21.04.2017 06:54 8,7 C 95 % 1025,2 hPa 0,0 l/m 12,2 km/h (2 Bft) SW 223 0 min 12 W/m 7,9 C 4,9 C 17,7 km/h (3 Bft)
21.04.2017 06:57 8,7 C 95 % 1025,1 hPa 0,0 l/m 11,5 km/h (2 Bft) W 273 0 min 14 W/m 7,9 C 5,3 C 22,5 km/h (4 Bft)
21.04.2017 07:00 8,8 C 95 % 1025,2 hPa 0,0 l/m 11,3 km/h (2 Bft) SW 224 0 min 18 W/m 8,0 C 5,5 C 19,3 km/h (3 Bft)
21.04.2017 07:03 8,8 C 95 % 1025,1 hPa 0,0 l/m 10,2 km/h (2 Bft) W-SW 244 0 min 18 W/m 8,0 C 6,1 C 17,7 km/h (3 Bft)
21.04.2017 07:06 8,8 C 95 % 1025,2 hPa 0,0 l/m 10,3 km/h (2 Bft) W 262 0 min 16 W/m 8,0 C 6,1 C 17,7 km/h (3 Bft)
21.04.2017 07:09 8,8 C 95 % 1025,2 hPa 0,0 l/m 9,5 km/h (2 Bft) SW 234 0 min 16 W/m 8,0 C 6,6 C 16,1 km/h (3 Bft)
21.04.2017 07:12 8,8 C 95 % 1025,2 hPa 0,0 l/m 9,5 km/h (2 Bft) SW 221 0 min 21 W/m 8,0 C 6,6 C 17,7 km/h (3 Bft)
21.04.2017 07:15 8,9 C 95 % 1025,2 hPa 0,0 l/m 11,5 km/h (2 Bft) W 261 0 min 23 W/m 8,1 C 5,5 C 19,3 km/h (3 Bft)
21.04.2017 07:18 8,9 C 95 % 1025,3 hPa 0,0 l/m 12,5 km/h (2 Bft) NW 307 0 min 21 W/m 8,1 C 5,0 C 22,5 km/h (4 Bft)
21.04.2017 07:21 8,9 C 95 % 1025,2 hPa 0,0 l/m 12,0 km/h (2 Bft) W 276 0 min 21 W/m 8,1 C 5,2 C 22,5 km/h (4 Bft)
21.04.2017 07:24 8,9 C 95 % 1025,3 hPa 0,0 l/m 10,9 km/h (2 Bft) S-SW 207 0 min 28 W/m 8,1 C 5,9 C 19,3 km/h (3 Bft)
21.04.2017 07:27 8,9 C 95 % 1025,3 hPa 0,0 l/m 9,8 km/h (2 Bft) SW 229 0 min 37 W/m 8,1 C 6,5 C 17,7 km/h (3 Bft)
21.04.2017 07:30 8,9 C 95 % 1025,2 hPa 0,0 l/m 14,7 km/h (3 Bft) SW 218 0 min 39 W/m 8,1 C 3,9 C 25,7 km/h (4 Bft)
21.04.2017 07:33 8,9 C 95 % 1025,2 hPa 0,0 l/m 13,4 km/h (3 Bft) SW 231 0 min 39 W/m 8,1 C 4,5 C 24,1 km/h (4 Bft)
21.04.2017 07:36 8,9 C 95 % 1025,2 hPa 0,0 l/m 11,0 km/h (2 Bft) W-SW 251 0 min 37 W/m 8,1 C 5,8 C 20,9 km/h (4 Bft)
21.04.2017 07:39 8,9 C 95 % 1025,1 hPa 0,0 l/m 11,7 km/h (2 Bft) SW 232 0 min 32 W/m 8,1 C 5,4 C 27,4 km/h (5 Bft)
21.04.2017 07:42 8,9 C 95 % 1025,2 hPa 0,0 l/m 11,7 km/h (2 Bft) W 277 0 min 39 W/m 8,1 C 5,4 C 20,9 km/h (4 Bft)
21.04.2017 07:45 8,9 C 95 % 1025,2 hPa 0,0 l/m 14,1 km/h (3 Bft) S-SW 202 0 min 46 W/m 8,1 C 4,2 C 22,5 km/h (4 Bft)
21.04.2017 07:48 8,9 C 95 % 1025,1 hPa 0,0 l/m 13,3 km/h (3 Bft) W-SW 248 0 min 49 W/m 8,1 C 4,6 C 20,9 km/h (4 Bft)
21.04.2017 07:51 8,9 C 95 % 1025,0 hPa 0,0 l/m 12,8 km/h (3 Bft) SW 218 0 min 44 W/m 8,1 C 4,8 C 20,9 km/h (4 Bft)
21.04.2017 07:54 8,9 C 95 % 1025,1 hPa 0,0 l/m 15,0 km/h (3 Bft) SW 217 0 min 42 W/m 8,1 C 3,8 C 25,7 km/h (4 Bft)
21.04.2017 07:57 8,8 C 94 % 1025,1 hPa 0,0 l/m 16,6 km/h (3 Bft) S-SW 210 0 min 42 W/m 7,9 C 3,0 C 27,4 km/h (5 Bft)
21.04.2017 08:00 8,8 C 94 % 1025,1 hPa 0,0 l/m 13,5 km/h (3 Bft) W-SW 244 0 min 51 W/m 7,9 C 4,4 C 22,5 km/h (4 Bft)
21.04.2017 08:03 8,8 C 94 % 1025,1 hPa 0,0 l/m 13,6 km/h (3 Bft) S-SW 212 0 min 51 W/m 7,9 C 4,3 C 22,5 km/h (4 Bft)
21.04.2017 08:06 8,9 C 95 % 1025,0 hPa 0,0 l/m 12,1 km/h (2 Bft) SW 229 0 min 62 W/m 8,1 C 5,2 C 20,9 km/h (4 Bft)
21.04.2017 08:09 8,9 C 95 % 1025,0 hPa 0,0 l/m 16,1 km/h (3 Bft) W-SW 238 0 min 56 W/m 8,1 C 3,3 C 22,5 km/h (4 Bft)
21.04.2017 08:12 8,9 C 95 % 1025,0 hPa 0,0 l/m 14,5 km/h (3 Bft) SW 226 0 min 72 W/m 8,1 C 4,0 C 24,1 km/h (4 Bft)
21.04.2017 08:15 8,9 C 94 % 1024,9 hPa 0,0 l/m 17,5 km/h (3 Bft) S-SW 213 0 min 79 W/m 8,0 C 2,8 C 27,4 km/h (5 Bft)
21.04.2017 08:18 8,9 C 94 % 1024,9 hPa 0,0 l/m 17,2 km/h (3 Bft) SW 227 0 min 91 W/m 8,0 C 2,9 C 27,4 km/h (5 Bft)
21.04.2017 08:21 9,0 C 94 % 1024,9 hPa 0,0 l/m 14,0 km/h (3 Bft) W-SW 243 0 min 91 W/m 8,1 C 4,4 C 24,1 km/h (4 Bft)
21.04.2017 08:24 9,1 C 94 % 1024,8 hPa 0,0 l/m 15,2 km/h (3 Bft) W-SW 248 0 min 83 W/m 8,2 C 4,0 C 29,0 km/h (5 Bft)
21.04.2017 08:27 9,1 C 94 % 1024,8 hPa 0,0 l/m 15,5 km/h (3 Bft) SW 236 0 min 67 W/m 8,2 C 3,8 C 20,9 km/h (4 Bft)
21.04.2017 08:30 9,1 C 94 % 1024,8 hPa 0,0 l/m 16,4 km/h (3 Bft) W-SW 248 0 min 60 W/m 8,2 C 3,5 C 25,7 km/h (4 Bft)
21.04.2017 08:33 9,1 C 94 % 1024,8 hPa 0,0 l/m 17,7 km/h (3 Bft) W-SW 246 0 min 60 W/m 8,2 C 2,9 C 25,7 km/h (4 Bft)
21.04.2017 08:36 9,1 C 94 % 1024,8 hPa 0,0 l/m 14,1 km/h (3 Bft) SW 221 0 min 62 W/m 8,2 C 4,4 C 22,5 km/h (4 Bft)
21.04.2017 08:39 9,1 C 94 % 1024,7 hPa 0,0 l/m 14,4 km/h (3 Bft) S-SW 210 0 min 60 W/m 8,2 C 4,3 C 19,3 km/h (3 Bft)
21.04.2017 08:42 9,2 C 94 % 1024,8 hPa 0,0 l/m 14,2 km/h (3 Bft) SW 224 0 min 84 W/m 8,3 C 4,5 C 22,5 km/h (4 Bft)
21.04.2017 08:45 9,2 C 94 % 1024,7 hPa 0,0 l/m 17,0 km/h (3 Bft) SW 220 0 min 79 W/m 8,3 C 3,3 C 25,7 km/h (4 Bft)
21.04.2017 08:48 9,2 C 94 % 1024,8 hPa 0,0 l/m 15,5 km/h (3 Bft) SW 227 0 min 76 W/m 8,3 C 4,0 C 24,1 km/h (4 Bft)
21.04.2017 08:51 9,2 C 94 % 1024,7 hPa 0,0 l/m 13,7 km/h (3 Bft) W-SW 254 0 min 79 W/m 8,3 C 4,8 C 22,5 km/h (4 Bft)
21.04.2017 08:54 9,2 C 94 % 1024,7 hPa 0,0 l/m 16,7 km/h (3 Bft) W-SW 240 0 min 90 W/m 8,3 C 3,5 C 30,6 km/h (5 Bft)
21.04.2017 08:57 9,2 C 94 % 1024,7 hPa 0,0 l/m 17,5 km/h (3 Bft) SW 229 0 min 83 W/m 8,3 C 3,1 C 27,4 km/h (5 Bft)
21.04.2017 09:00 9,2 C 94 % 1024,6 hPa 0,0 l/m 15,2 km/h (3 Bft) W-SW 253 0 min 98 W/m 8,3 C 4,1 C 27,4 km/h (5 Bft)
21.04.2017 09:03 9,2 C 94 % 1024,5 hPa 0,0 l/m 15,2 km/h (3 Bft) S-SW 212 0 min 104 W/m 8,3 C 4,1 C 24,1 km/h (4 Bft)
21.04.2017 09:06 9,3 C 94 % 1024,5 hPa 0,0 l/m 14,2 km/h (3 Bft) SW 223 0 min 130 W/m 8,4 C 4,6 C 22,5 km/h (4 Bft)
21.04.2017 09:09 9,4 C 94 % 1024,5 hPa 0,0 l/m 16,5 km/h (3 Bft) SW 225 0 min 105 W/m 8,5 C 3,8 C 22,5 km/h (4 Bft)
21.04.2017 09:12 9,4 C 93 % 1024,4 hPa 0,0 l/m 14,9 km/h (3 Bft) SW 225 0 min 81 W/m 8,3 C 4,5 C 25,7 km/h (4 Bft)
21.04.2017 09:15 9,4 C 93 % 1024,4 hPa 0,0 l/m 15,6 km/h (3 Bft) S-SW 201 0 min 67 W/m 8,3 C 4,2 C 20,9 km/h (4 Bft)
21.04.2017 09:18 9,4 C 93 % 1024,4 hPa 0,0 l/m 14,8 km/h (3 Bft) S-SW 205 0 min 84 W/m 8,3 C 4,5 C 22,5 km/h (4 Bft)
21.04.2017 09:21 9,4 C 93 % 1024,4 hPa 0,0 l/m 16,0 km/h (3 Bft) SW 235 0 min 100 W/m 8,3 C 4,0 C 22,5 km/h (4 Bft)
21.04.2017 09:24 9,5 C 93 % 1024,4 hPa 0,0 l/m 15,3 km/h (3 Bft) S 186 0 min 70 W/m 8,4 C 4,4 C 24,1 km/h (4 Bft)
21.04.2017 09:27 9,6 C 93 % 1024,4 hPa 0,0 l/m 15,5 km/h (3 Bft) W-SW 238 0 min 95 W/m 8,5 C 4,4 C 20,9 km/h (4 Bft)
21.04.2017 09:30 9,6 C 93 % 1024,4 hPa 0,0 l/m 16,9 km/h (3 Bft) S-SW 207 0 min 93 W/m 8,5 C 3,9 C 24,1 km/h (4 Bft)
21.04.2017 09:33 9,5 C 92 % 1024,4 hPa 0,0 l/m 19,7 km/h (3 Bft) SW 222 0 min 83 W/m 8,3 C 2,7 C 25,7 km/h (4 Bft)
21.04.2017 09:36 9,5 C 92 % 1024,4 hPa 0,0 l/m 17,0 km/h (3 Bft) SW 231 0 min 77 W/m 8,3 C 3,7 C 27,4 km/h (5 Bft)
21.04.2017 09:39 9,5 C 92 % 1024,3 hPa 0,0 l/m 16,8 km/h (3 Bft) SW 227 0 min 98 W/m 8,3 C 3,8 C 24,1 km/h (4 Bft)
21.04.2017 09:42 9,6 C 92 % 1024,3 hPa 0,0 l/m 15,7 km/h (3 Bft) S-SW 208 0 min 121 W/m 8,4 C 4,4 C 25,7 km/h (4 Bft)
21.04.2017 09:45 9,7 C 92 % 1024,2 hPa 0,0 l/m 15,7 km/h (3 Bft) SW 227 0 min 192 W/m 8,5 C 4,5 C 25,7 km/h (4 Bft)
21.04.2017 09:48 9,7 C 92 % 1024,2 hPa 0,0 l/m 17,3 km/h (3 Bft) S-SW 213 0 min 193 W/m 8,5 C 3,9 C 25,7 km/h (4 Bft)
21.04.2017 09:51 9,8 C 92 % 1024,2 hPa 0,0 l/m 16,8 km/h (3 Bft) SW 217 0 min 213 W/m 8,6 C 4,2 C 22,5 km/h (4 Bft)
21.04.2017 09:54 9,9 C 92 % 1024,2 hPa 0,0 l/m 16,3 km/h (3 Bft) S-SW 207 0 min 200 W/m 8,7 C 4,5 C 25,7 km/h (4 Bft)
21.04.2017 09:57 10,0 C 91 % 1024,2 hPa 0,0 l/m 17,4 km/h (3 Bft) SW 215 0 min 171 W/m 8,6 C 4,2 C 25,7 km/h (4 Bft)
21.04.2017 10:00 10,1 C 91 % 1024,1 hPa 0,0 l/m 18,2 km/h (3 Bft) W-SW 240 0 min 174 W/m 8,7 C 4,0 C 27,4 km/h (5 Bft)
21.04.2017 10:03 10,1 C 91 % 1024,1 hPa 0,0 l/m 17,8 km/h (3 Bft) S-SW 207 0 min 162 W/m 8,7 C 4,2 C 29,0 km/h (5 Bft)
21.04.2017 10:06 10,2 C 91 % 1024,1 hPa 0,0 l/m 17,2 km/h (3 Bft) S-SW 213 0 min 151 W/m 8,8 C 4,5 C 24,1 km/h (4 Bft)
21.04.2017 10:09 10,2 C 91 % 1024,1 hPa 0,0 l/m 20,8 km/h (4 Bft) W-SW 248 0 min 172 W/m 8,8 C 3,3 C 29,0 km/h (5 Bft)
21.04.2017 10:12 10,2 C 90 % 1024,1 hPa 0,0 l/m 20,2 km/h (4 Bft) SW 215 0 min 174 W/m 8,6 C 3,5 C 29,0 km/h (5 Bft)
21.04.2017 10:15 10,3 C 90 % 1024,1 hPa 0,0 l/m 17,1 km/h (3 Bft) SW 230 0 min 221 W/m 8,7 C 4,7 C 30,6 km/h (5 Bft)
21.04.2017 10:18 10,4 C 90 % 1024,0 hPa 0,0 l/m 18,2 km/h (3 Bft) W-SW 242 0 min 308 W/m 8,8 C 4,4 C 25,7 km/h (4 Bft)
21.04.2017 10:21 10,5 C 90 % 1024,0 hPa 0,0 l/m 18,4 km/h (3 Bft) SW 216 3 min 329 W/m 8,9 C 4,5 C 27,4 km/h (5 Bft)
21.04.2017 10:24 10,6 C 89 % 1024,0 hPa 0,0 l/m 20,3 km/h (4 Bft) W-SW 255 0 min 297 W/m 8,9 C 4,0 C 35,4 km/h (5 Bft)
21.04.2017 10:27 10,8 C 89 % 1024,0 hPa 0,0 l/m 18,6 km/h (3 Bft) S-SW 196 3 min 348 W/m 9,1 C 4,8 C 29,0 km/h (5 Bft)
21.04.2017 10:30 10,9 C 89 % 1024,0 hPa 0,0 l/m 19,6 km/h (3 Bft) W-SW 240 3 min 334 W/m 9,2 C 4,6 C 27,4 km/h (5 Bft)
21.04.2017 10:33 11,0 C 88 % 1024,1 hPa 0,0 l/m 19,5 km/h (3 Bft) SW 225 3 min 360 W/m 9,1 C 4,7 C 27,4 km/h (5 Bft)
21.04.2017 10:36 11,1 C 88 % 1023,9 hPa 0,0 l/m 19,3 km/h (3 Bft) SW 223 3 min 374 W/m 9,2 C 4,9 C 27,4 km/h (5 Bft)
21.04.2017 10:39 11,2 C 88 % 1024,0 hPa 0,0 l/m 21,3 km/h (4 Bft) SW 214 3 min 341 W/m 9,3 C 4,4 C 27,4 km/h (5 Bft)
21.04.2017 10:42 11,2 C 88 % 1024,0 hPa 0,0 l/m 17,2 km/h (3 Bft) SW 215 0 min 287 W/m 9,3 C 5,8 C 25,7 km/h (4 Bft)
21.04.2017 10:45 11,3 C 87 % 1023,9 hPa 0,0 l/m 17,2 km/h (3 Bft) SW 233 0 min 294 W/m 9,2 C 5,9 C 25,7 km/h (4 Bft)
21.04.2017 10:48 11,3 C 86 % 1023,8 hPa 0,0 l/m 23,6 km/h (4 Bft) SW 224 0 min 318 W/m 9,0 C 3,9 C 32,2 km/h (5 Bft)
21.04.2017 10:51 11,3 C 86 % 1023,8 hPa 0,0 l/m 23,0 km/h (4 Bft) SW 231 3 min 376 W/m 9,0 C 4,1 C 35,4 km/h (5 Bft)
21.04.2017 10:54 11,4 C 87 % 1023,8 hPa 0,0 l/m 21,9 km/h (4 Bft) SW 214 3 min 364 W/m 9,3 C 4,5 C 33,8 km/h (5 Bft)
21.04.2017 10:57 11,6 C 87 % 1023,8 hPa 0,0 l/m 16,5 km/h (3 Bft) S-SW 198 3 min 487 W/m 9,5 C 6,5 C 22,5 km/h (4 Bft)
21.04.2017 11:00 11,8 C 85 % 1023,8 hPa 0,0 l/m 21,6 km/h (4 Bft) SW 221 3 min 388 W/m 9,4 C 5,2 C 30,6 km/h (5 Bft)
21.04.2017 11:03 11,8 C 85 % 1023,8 hPa 0,0 l/m 18,4 km/h (3 Bft) W-SW 250 3 min 383 W/m 9,4 C 6,1 C 29,0 km/h (5 Bft)
21.04.2017 11:06 11,8 C 84 % 1023,8 hPa 0,0 l/m 19,8 km/h (3 Bft) SW 231 3 min 380 W/m 9,2 C 5,7 C 32,2 km/h (5 Bft)
21.04.2017 11:09 11,8 C 85 % 1023,6 hPa 0,0 l/m 18,4 km/h (3 Bft) W-SW 248 3 min 378 W/m 9,4 C 6,1 C 32,2 km/h (5 Bft)
21.04.2017 11:12 11,9 C 84 % 1023,7 hPa 0,0 l/m 19,3 km/h (3 Bft) SW 227 3 min 404 W/m 9,3 C 6,0 C 27,4 km/h (5 Bft)
21.04.2017 11:15 11,8 C 85 % 1023,7 hPa 0,0 l/m 21,3 km/h (4 Bft) W-NW 292 3 min 410 W/m 9,4 C 5,2 C 33,8 km/h (5 Bft)
21.04.2017 11:18 11,8 C 85 % 1023,6 hPa 0,0 l/m 19,6 km/h (3 Bft) S-SW 202 3 min 385 W/m 9,4 C 5,7 C 30,6 km/h (5 Bft)
21.04.2017 11:21 11,9 C 85 % 1023,5 hPa 0,0 l/m 22,3 km/h (4 Bft) SW 228 3 min 496 W/m 9,5 C 5,1 C 32,2 km/h (5 Bft)
21.04.2017 11:24 11,9 C 85 % 1023,5 hPa 0,0 l/m 21,4 km/h (4 Bft) S-SW 212 0 min 362 W/m 9,5 C 5,3 C 32,2 km/h (5 Bft)
21.04.2017 11:27 11,9 C 85 % 1023,5 hPa 0,0 l/m 18,7 km/h (3 Bft) W 259 0 min 362 W/m 9,5 C 6,1 C 32,2 km/h (5 Bft)
21.04.2017 11:30 12,1 C 85 % 1023,5 hPa 0,0 l/m 18,4 km/h (3 Bft) S-SW 203 3 min 399 W/m 9,7 C 6,5 C 25,7 km/h (4 Bft)
21.04.2017 11:33 12,1 C 85 % 1023,5 hPa 0,0 l/m 18,3 km/h (3 Bft) W 267 3 min 410 W/m 9,7 C 6,5 C 30,6 km/h (5 Bft)
21.04.2017 11:36 12,2 C 85 % 1023,4 hPa 0,0 l/m 20,0 km/h (4 Bft) SW 228 3 min 399 W/m 9,8 C 6,1 C 38,6 km/h (6 Bft)
21.04.2017 11:39 12,2 C 84 % 1023,5 hPa 0,0 l/m 22,2 km/h (4 Bft) S-SW 207 3 min 415 W/m 9,6 C 5,5 C 35,4 km/h (5 Bft)
21.04.2017 11:42 12,3 C 85 % 1023,4 hPa 0,0 l/m 19,7 km/h (3 Bft) S-SW 207 3 min 439 W/m 9,9 C 6,3 C 29,0 km/h (5 Bft)
21.04.2017 11:45 12,5 C 84 % 1023,4 hPa 0,0 l/m 19,3 km/h (3 Bft) S-SW 193 3 min 427 W/m 9,9 C 6,7 C 29,0 km/h (5 Bft)
21.04.2017 11:48 12,8 C 84 % 1023,3 hPa 0,0 l/m 16,8 km/h (3 Bft) S-SW 200 3 min 436 W/m 10,2 C 7,9 C 24,1 km/h (4 Bft)
21.04.2017 11:51 13,0 C 83 % 1023,3 hPa 0,0 l/m 15,2 km/h (3 Bft) S-SW 211 3 min 431 W/m 10,2 C 8,7 C 25,7 km/h (4 Bft)
21.04.2017 11:54 13,0 C 82 % 1023,3 hPa 0,0 l/m 16,7 km/h (3 Bft) SW 236 3 min 403 W/m 10,0 C 8,2 C 24,1 km/h (4 Bft)
21.04.2017 11:57 13,0 C 82 % 1023,2 hPa 0,0 l/m 17,1 km/h (3 Bft) W 259 3 min 385 W/m 10,0 C 8,0 C 32,2 km/h (5 Bft)
21.04.2017 12:00 12,9 C 82 % 1023,2 hPa 0,0 l/m 19,3 km/h (3 Bft) SW 232 0 min 360 W/m 9,9 C 7,2 C 33,8 km/h (5 Bft)
21.04.2017 12:03 12,8 C 83 % 1023,1 hPa 0,0 l/m 19,3 km/h (3 Bft) W-SW 250 0 min 345 W/m 10,0 C 7,1 C 27,4 km/h (5 Bft)
21.04.2017 12:06 12,8 C 83 % 1023,1 hPa 0,0 l/m 21,3 km/h (4 Bft) S-SW 208 0 min 225 W/m 10,0 C 6,5 C 30,6 km/h (5 Bft)
21.04.2017 12:09 12,6 C 82 % 1023,1 hPa 0,0 l/m 19,9 km/h (4 Bft) SW 219 0 min 206 W/m 9,6 C 6,7 C 29,0 km/h (5 Bft)
21.04.2017 12:12 12,5 C 83 % 1023,0 hPa 0,0 l/m 17,4 km/h (3 Bft) SW 234 0 min 156 W/m 9,7 C 7,3 C 25,7 km/h (4 Bft)
21.04.2017 12:15 12,4 C 84 % 1023,0 hPa 0,0 l/m 18,4 km/h (3 Bft) W-SW 252 0 min 155 W/m 9,8 C 6,9 C 25,7 km/h (4 Bft)
21.04.2017 12:18 12,4 C 83 % 1023,0 hPa 0,0 l/m 15,3 km/h (3 Bft) SW 228 0 min 155 W/m 9,6 C 7,9 C 25,7 km/h (4 Bft)
21.04.2017 12:21 12,4 C 84 % 1023,0 hPa 0,0 l/m 17,5 km/h (3 Bft) N 360 0 min 162 W/m 9,8 C 7,2 C 25,7 km/h (4 Bft)
21.04.2017 12:24 12,4 C 84 % 1023,1 hPa 0,0 l/m 15,8 km/h (3 Bft) W-SW 238 0 min 125 W/m 9,8 C 7,7 C 27,4 km/h (5 Bft)
21.04.2017 12:27 12,3 C 85 % 1023,1 hPa 0,0 l/m 9,9 km/h (2 Bft) S-SW 207 0 min 127 W/m 9,9 C 10,2 C 20,9 km/h (4 Bft)
21.04.2017 12:30 12,3 C 85 % 1023,1 hPa 0,0 l/m 10,0 km/h (2 Bft) S-SW 201 0 min 81 W/m 9,9 C 10,1 C 20,9 km/h (4 Bft)
21.04.2017 12:33 12,3 C 85 % 1023,1 hPa 0,0 l/m 17,5 km/h (3 Bft) W 273 0 min 69 W/m 9,9 C 7,0 C 29,0 km/h (5 Bft)
21.04.2017 12:36 12,2 C 85 % 1023,1 hPa 0,0 l/m 15,0 km/h (3 Bft) S-SW 205 0 min 62 W/m 9,8 C 7,8 C 25,7 km/h (4 Bft)
21.04.2017 12:39 12,1 C 85 % 1023,1 hPa 0,0 l/m 12,2 km/h (2 Bft) W-SW 242 0 min 90 W/m 9,7 C 8,8 C 20,9 km/h (4 Bft)
21.04.2017 12:42 12,1 C 85 % 1023,0 hPa 0,0 l/m 13,4 km/h (3 Bft) W 266 0 min 86 W/m 9,7 C 8,3 C 27,4 km/h (5 Bft)
21.04.2017 12:45 12,0 C 86 % 1023,0 hPa 0,0 l/m 15,6 km/h (3 Bft) W-SW 254 0 min 74 W/m 9,7 C 7,3 C 27,4 km/h (5 Bft)
21.04.2017 12:48 11,8 C 86 % 1023,0 hPa 0,0 l/m 16,0 km/h (3 Bft) W-NW 284 0 min 69 W/m 9,5 C 6,9 C 32,2 km/h (5 Bft)
21.04.2017 12:51 11,7 C 86 % 1022,9 hPa 0,0 l/m 15,6 km/h (3 Bft) W-SW 249 0 min 74 W/m 9,4 C 7,0 C 22,5 km/h (4 Bft)
21.04.2017 12:54 11,6 C 88 % 1022,9 hPa 0,0 l/m 15,6 km/h (3 Bft) W-SW 246 0 min 151 W/m 9,7 C 6,8 C 27,4 km/h (5 Bft)
21.04.2017 12:57 11,5 C 88 % 1022,8 hPa 0,0 l/m 13,2 km/h (3 Bft) W-SW 242 0 min 172 W/m 9,6 C 7,7 C 24,1 km/h (4 Bft)
21.04.2017 13:00 11,6 C 88 % 1022,8 hPa 0,0 l/m 14,4 km/h (3 Bft) W-SW 255 0 min 171 W/m 9,7 C 7,3 C 29,0 km/h (5 Bft)
21.04.2017 13:03 11,6 C 88 % 1022,7 hPa 0,0 l/m 16,3 km/h (3 Bft) W-SW 244 0 min 209 W/m 9,7 C 6,6 C 30,6 km/h (5 Bft)
21.04.2017 13:06 11,6 C 88 % 1022,7 hPa 0,0 l/m 16,1 km/h (3 Bft) SW 227 0 min 171 W/m 9,7 C 6,7 C 29,0 km/h (5 Bft)
21.04.2017 13:09 11,7 C 87 % 1022,6 hPa 0,0 l/m 16,8 km/h (3 Bft) W-SW 240 0 min 116 W/m 9,6 C 6,5 C 35,4 km/h (5 Bft)
21.04.2017 13:12 11,7 C 87 % 1022,6 hPa 0,0 l/m 17,2 km/h (3 Bft) SW 221 0 min 123 W/m 9,6 C 6,4 C 32,2 km/h (5 Bft)
21.04.2017 13:15 11,6 C 87 % 1022,5 hPa 0,0 l/m 18,6 km/h (3 Bft) SW 219 0 min 167 W/m 9,5 C 5,8 C 30,6 km/h (5 Bft)
21.04.2017 13:18 11,7 C 88 % 1022,5 hPa 0,0 l/m 18,1 km/h (3 Bft) W-NW 284 0 min 186 W/m 9,8 C 6,1 C 33,8 km/h (5 Bft)
21.04.2017 13:21 11,7 C 87 % 1022,5 hPa 0,0 l/m 18,9 km/h (3 Bft) W 265 0 min 123 W/m 9,6 C 5,8 C 32,2 km/h (5 Bft)
21.04.2017 13:24 11,7 C 87 % 1022,5 hPa 0,0 l/m 19,7 km/h (3 Bft) SW 230 0 min 146 W/m 9,6 C 5,6 C 35,4 km/h (5 Bft)
21.04.2017 13:27 11,7 C 87 % 1022,4 hPa 0,0 l/m 15,5 km/h (3 Bft) SW 230 0 min 165 W/m 9,6 C 7,0 C 25,7 km/h (4 Bft)
21.04.2017 13:30 11,8 C 87 % 1022,4 hPa 0,0 l/m 13,5 km/h (3 Bft) S-SW 211 0 min 181 W/m 9,7 C 7,9 C 24,1 km/h (4 Bft)
21.04.2017 13:33 11,8 C 87 % 1022,3 hPa 0,0 l/m 15,1 km/h (3 Bft) W-NW 286 0 min 211 W/m 9,7 C 7,3 C 30,6 km/h (5 Bft)
21.04.2017 13:36 11,8 C 87 % 1022,3 hPa 0,0 l/m 15,5 km/h (3 Bft) W 271 0 min 209 W/m 9,7 C 7,1 C 29,0 km/h (5 Bft)
21.04.2017 13:39 11,9 C 87 % 1022,4 hPa 0,0 l/m 19,6 km/h (3 Bft) W-SW 256 0 min 239 W/m 9,8 C 5,9 C 29,0 km/h (5 Bft)
21.04.2017 13:42 12,1 C 87 % 1022,4 hPa 0,0 l/m 18,2 km/h (3 Bft) W-SW 240 0 min 250 W/m 10,0 C 6,6 C 30,6 km/h (5 Bft)
21.04.2017 13:45 12,1 C 87 % 1022,4 hPa 0,0 l/m 18,7 km/h (3 Bft) SW 230 0 min 243 W/m 10,0 C 6,4 C 25,7 km/h (4 Bft)
21.04.2017 13:48 12,1 C 86 % 1022,3 hPa 0,0 l/m 20,7 km/h (4 Bft) W 261 0 min 285 W/m 9,8 C 5,8 C 35,4 km/h (5 Bft)
21.04.2017 13:51 12,2 C 86 % 1022,2 hPa 0,0 l/m 20,2 km/h (4 Bft) W 278 0 min 366 W/m 9,9 C 6,1 C 30,6 km/h (5 Bft)
21.04.2017 13:54 12,3 C 86 % 1022,1 hPa 0,0 l/m 19,8 km/h (3 Bft) W-NW 286 3 min 427 W/m 10,0 C 6,3 C 35,4 km/h (5 Bft)
21.04.2017 13:57 12,4 C 86 % 1022,1 hPa 0,0 l/m 18,8 km/h (3 Bft) W-NW 291 3 min 411 W/m 10,1 C 6,7 C 32,2 km/h (5 Bft)
21.04.2017 14:00 12,5 C 85 % 1022,1 hPa 0,0 l/m 22,2 km/h (4 Bft) SW 217 3 min 459 W/m 10,0 C 5,9 C 38,6 km/h (6 Bft)
21.04.2017 14:03 12,7 C 85 % 1022,1 hPa 0,0 l/m 20,7 km/h (4 Bft) W 281 0 min 360 W/m 10,2 C 6,6 C 35,4 km/h (5 Bft)
21.04.2017 14:06 12,8 C 85 % 1022,1 hPa 0,0 l/m 17,1 km/h (3 Bft) SW 227 3 min 404 W/m 10,3 C 7,8 C 30,6 km/h (5 Bft)
21.04.2017 14:09 12,9 C 84 % 1022,0 hPa 0,0 l/m 18,9 km/h (3 Bft) SW 215 3 min 420 W/m 10,3 C 7,4 C 33,8 km/h (5 Bft)
21.04.2017 14:12 13,1 C 84 % 1021,9 hPa 0,0 l/m 16,8 km/h (3 Bft) SW 234 3 min 403 W/m 10,5 C 8,3 C 25,7 km/h (4 Bft)
21.04.2017 14:15 13,2 C 83 % 1021,9 hPa 0,0 l/m 16,5 km/h (3 Bft) SW 232 3 min 415 W/m 10,4 C 8,5 C 30,6 km/h (5 Bft)
21.04.2017 14:18 13,2 C 82 % 1021,9 hPa 0,0 l/m 20,4 km/h (4 Bft) SW 225 3 min 415 W/m 10,2 C 7,3 C 37,0 km/h (5 Bft)
21.04.2017 14:21 13,2 C 81 % 1021,8 hPa 0,0 l/m 19,1 km/h (3 Bft) W 270 3 min 399 W/m 10,0 C 7,7 C 37,0 km/h (5 Bft)
21.04.2017 14:24 13,2 C 79 % 1021,8 hPa 0,0 l/m 23,0 km/h (4 Bft) W-SW 243 0 min 374 W/m 9,6 C 6,6 C 37,0 km/h (5 Bft)
21.04.2017 14:27 13,2 C 78 % 1021,8 hPa 0,0 l/m 22,4 km/h (4 Bft) W-SW 253 0 min 343 W/m 9,4 C 6,8 C 40,2 km/h (6 Bft)
21.04.2017 14:30 12,9 C 77 % 1021,8 hPa 0,0 l/m 24,2 km/h (4 Bft) SW 217 0 min 329 W/m 9,0 C 5,9 C 48,3 km/h (6 Bft)
21.04.2017 14:33 12,8 C 78 % 1021,7 hPa 0,0 l/m 21,1 km/h (4 Bft) W-SW 251 0 min 294 W/m 9,1 C 6,6 C 40,2 km/h (6 Bft)
21.04.2017 14:36 12,8 C 79 % 1021,8 hPa 0,0 l/m 17,6 km/h (3 Bft) W-SW 238 0 min 276 W/m 9,2 C 7,6 C 30,6 km/h (5 Bft)
21.04.2017 14:39 12,6 C 80 % 1021,8 hPa 0,0 l/m 20,5 km/h (4 Bft) W-NW 289 0 min 274 W/m 9,2 C 6,5 C 40,2 km/h (6 Bft)
21.04.2017 14:42 12,4 C 81 % 1021,8 hPa 0,0 l/m 15,2 km/h (3 Bft) SW 229 0 min 250 W/m 9,2 C 8,0 C 27,4 km/h (5 Bft)
21.04.2017 14:45 12,3 C 81 % 1021,7 hPa 0,0 l/m 20,2 km/h (4 Bft) SW 227 0 min 223 W/m 9,1 C 6,2 C 38,6 km/h (6 Bft)
21.04.2017 14:48 12,2 C 82 % 1021,8 hPa 0,0 l/m 17,0 km/h (3 Bft) W-NW 301 0 min 218 W/m 9,2 C 7,1 C 32,2 km/h (5 Bft)
21.04.2017 14:51 12,1 C 82 % 1021,7 hPa 0,0 l/m 17,7 km/h (3 Bft) W-SW 244 0 min 199 W/m 9,1 C 6,7 C 32,2 km/h (5 Bft)
21.04.2017 14:54 11,9 C 82 % 1021,6 hPa 0,0 l/m 23,6 km/h (4 Bft) W 263 0 min 179 W/m 8,9 C 4,8 C 40,2 km/h (6 Bft)
21.04.2017 14:57 11,8 C 82 % 1021,7 hPa 0,0 l/m 22,8 km/h (4 Bft) W-NW 292 0 min 169 W/m 8,8 C 4,8 C 35,4 km/h (5 Bft)
21.04.2017 15:00 11,7 C 83 % 1021,7 hPa 0,0 l/m 18,9 km/h (3 Bft) W 275 0 min 163 W/m 8,9 C 5,8 C 29,0 km/h (5 Bft)
21.04.2017 15:03 11,6 C 83 % 1021,6 hPa 0,0 l/m 18,1 km/h (3 Bft) W-NW 292 0 min 158 W/m 8,8 C 6,0 C 27,4 km/h (5 Bft)
21.04.2017 15:06 11,6 C 83 % 1021,7 hPa 0,0 l/m 18,6 km/h (3 Bft) W-NW 302 0 min 155 W/m 8,8 C 5,8 C 35,4 km/h (5 Bft)
21.04.2017 15:09 11,4 C 84 % 1021,6 hPa 0,0 l/m 18,0 km/h (3 Bft) W-SW 250 0 min 158 W/m 8,8 C 5,7 C 32,2 km/h (5 Bft)
21.04.2017 15:12 11,3 C 85 % 1021,5 hPa 0,0 l/m 17,1 km/h (3 Bft) W 279 0 min 158 W/m 8,9 C 5,9 C 29,0 km/h (5 Bft)
21.04.2017 15:15 11,2 C 85 % 1021,5 hPa 0,0 l/m 22,4 km/h (4 Bft) W 271 0 min 174 W/m 8,8 C 4,1 C 35,4 km/h (5 Bft)
21.04.2017 15:18 11,2 C 85 % 1021,4 hPa 0,0 l/m 19,7 km/h (3 Bft) W 276 0 min 192 W/m 8,8 C 4,9 C 40,2 km/h (6 Bft)
21.04.2017 15:21 11,2 C 85 % 1021,3 hPa 0,0 l/m 23,8 km/h (4 Bft) W-SW 250 0 min 195 W/m 8,8 C 3,8 C 38,6 km/h (6 Bft)
21.04.2017 15:24 11,1 C 85 % 1021,4 hPa 0,0 l/m 23,7 km/h (4 Bft) SW 232 0 min 204 W/m 8,7 C 3,7 C 41,8 km/h (6 Bft)
21.04.2017 15:27 11,1 C 85 % 1021,3 hPa 0,0 l/m 20,2 km/h (4 Bft) W 273 0 min 209 W/m 8,7 C 4,6 C 37,0 km/h (5 Bft)
21.04.2017 15:30 11,2 C 85 % 1021,3 hPa 0,0 l/m 20,9 km/h (4 Bft) W-NW 302 0 min 220 W/m 8,8 C 4,6 C 32,2 km/h (5 Bft)
21.04.2017 15:33 11,2 C 85 % 1021,3 hPa 0,0 l/m 20,4 km/h (4 Bft) W 266 0 min 221 W/m 8,8 C 4,7 C 33,8 km/h (5 Bft)
21.04.2017 15:36 11,1 C 85 % 1021,3 hPa 0,0 l/m 21,4 km/h (4 Bft) W-SW 237 0 min 200 W/m 8,7 C 4,3 C 37,0 km/h (5 Bft)
21.04.2017 15:39 11,1 C 85 % 1021,3 hPa 0,0 l/m 20,0 km/h (4 Bft) W 269 0 min 172 W/m 8,7 C 4,7 C 33,8 km/h (5 Bft)
21.04.2017 15:42 11,1 C 85 % 1021,3 hPa 0,0 l/m 20,1 km/h (4 Bft) SW 217 0 min 169 W/m 8,7 C 4,7 C 40,2 km/h (6 Bft)
21.04.2017 15:45 11,1 C 85 % 1021,3 hPa 0,0 l/m 20,9 km/h (4 Bft) W 265 0 min 153 W/m 8,7 C 4,4 C 30,6 km/h (5 Bft)
21.04.2017 15:48 11,0 C 85 % 1021,3 hPa 0,0 l/m 19,6 km/h (3 Bft) W 266 0 min 162 W/m 8,6 C 4,7 C 41,8 km/h (6 Bft)
21.04.2017 15:51 10,9 C 85 % 1021,2 hPa 0,0 l/m 20,7 km/h (4 Bft) SW 223 0 min 186 W/m 8,5 C 4,2 C 38,6 km/h (6 Bft)
21.04.2017 15:54 11,0 C 86 % 1021,2 hPa 0,0 l/m 17,2 km/h (3 Bft) SW 234 0 min 202 W/m 8,7 C 5,5 C 33,8 km/h (5 Bft)
21.04.2017 15:57 11,1 C 86 % 1021,2 hPa 0,0 l/m 17,3 km/h (3 Bft) SW 224 0 min 190 W/m 8,8 C 5,6 C 30,6 km/h (5 Bft)
21.04.2017 16:00 11,1 C 85 % 1021,2 hPa 0,0 l/m 23,7 km/h (4 Bft) SW 217 0 min 190 W/m 8,7 C 3,7 C 41,8 km/h (6 Bft)
21.04.2017 16:03 11,1 C 86 % 1021,2 hPa 0,0 l/m 16,2 km/h (3 Bft) W 262 0 min 176 W/m 8,8 C 6,0 C 29,0 km/h (5 Bft)
21.04.2017 16:06 11,1 C 85 % 1021,2 hPa 0,0 l/m 19,6 km/h (3 Bft) SW 230 0 min 176 W/m 8,7 C 4,8 C 38,6 km/h (6 Bft)
21.04.2017 16:09 11,2 C 85 % 1021,1 hPa 0,0 l/m 18,4 km/h (3 Bft) W-SW 243 0 min 179 W/m 8,8 C 5,4 C 25,7 km/h (4 Bft)
21.04.2017 16:12 11,2 C 85 % 1021,1 hPa 0,0 l/m 18,3 km/h (3 Bft) W-SW 248 0 min 181 W/m 8,8 C 5,4 C 30,6 km/h (5 Bft)
21.04.2017 16:15 11,2 C 85 % 1021,0 hPa 0,0 l/m 20,6 km/h (4 Bft) W 280 0 min 171 W/m 8,8 C 4,7 C 45,1 km/h (6 Bft)
21.04.2017 16:18 11,2 C 85 % 1021,1 hPa 0,0 l/m 21,6 km/h (4 Bft) W-NW 296 0 min 176 W/m 8,8 C 4,4 C 35,4 km/h (5 Bft)
21.04.2017 16:21 11,2 C 84 % 1020,9 hPa 0,0 l/m 22,4 km/h (4 Bft) W 271 0 min 171 W/m 8,6 C 4,1 C 32,2 km/h (5 Bft)
21.04.2017 16:24 11,2 C 84 % 1020,9 hPa 0,0 l/m 20,0 km/h (4 Bft) SW 227 0 min 162 W/m 8,6 C 4,8 C 37,0 km/h (5 Bft)
21.04.2017 16:27 11,3 C 84 % 1020,8 hPa 0,0 l/m 15,5 km/h (3 Bft) NW 308 0 min 162 W/m 8,7 C 6,5 C 32,2 km/h (5 Bft)
21.04.2017 16:30 11,3 C 84 % 1020,8 hPa 0,0 l/m 18,7 km/h (3 Bft) W-SW 237 0 min 155 W/m 8,7 C 5,4 C 32,2 km/h (5 Bft)
21.04.2017 16:33 11,3 C 84 % 1020,8 hPa 0,0 l/m 16,4 km/h (3 Bft) W 263 0 min 142 W/m 8,7 C 6,2 C 29,0 km/h (5 Bft)
21.04.2017 16:36 11,2 C 84 % 1020,7 hPa 0,0 l/m 20,2 km/h (4 Bft) W-NW 287 0 min 176 W/m 8,6 C 4,8 C 41,8 km/h (6 Bft)
21.04.2017 16:39 11,2 C 85 % 1020,7 hPa 0,0 l/m 17,2 km/h (3 Bft) W 276 0 min 202 W/m 8,8 C 5,8 C 29,0 km/h (5 Bft)
21.04.2017 16:42 11,2 C 85 % 1020,6 hPa 0,0 l/m 18,7 km/h (3 Bft) W-SW 255 3 min 311 W/m 8,8 C 5,3 C 30,6 km/h (5 Bft)
21.04.2017 16:45 11,2 C 85 % 1020,6 hPa 0,0 l/m 22,4 km/h (4 Bft) W-NW 287 3 min 295 W/m 8,8 C 4,1 C 41,8 km/h (6 Bft)
21.04.2017 16:48 11,1 C 85 % 1020,5 hPa 0,0 l/m 21,0 km/h (4 Bft) W-NW 291 0 min 285 W/m 8,7 C 4,4 C 43,5 km/h (6 Bft)
21.04.2017 16:51 11,2 C 85 % 1020,5 hPa 0,0 l/m 20,8 km/h (4 Bft) W-NW 293 3 min 294 W/m 8,8 C 4,6 C 37,0 km/h (5 Bft)
21.04.2017 16:54 11,2 C 84 % 1020,5 hPa 0,0 l/m 22,0 km/h (4 Bft) W 265 0 min 264 W/m 8,6 C 4,2 C 37,0 km/h (5 Bft)
21.04.2017 16:57 11,2 C 85 % 1020,5 hPa 0,0 l/m 19,4 km/h (3 Bft) SW 232 0 min 265 W/m 8,8 C 5,0 C 35,4 km/h (5 Bft)
21.04.2017 17:00 11,2 C 85 % 1020,5 hPa 0,0 l/m 22,2 km/h (4 Bft) W 269 0 min 227 W/m 8,8 C 4,2 C 40,2 km/h (6 Bft)
21.04.2017 17:03 11,2 C 85 % 1020,5 hPa 0,0 l/m 18,3 km/h (3 Bft) W-SW 250 0 min 246 W/m 8,8 C 5,4 C 29,0 km/h (5 Bft)
21.04.2017 17:06 11,2 C 85 % 1020,4 hPa 0,0 l/m 18,3 km/h (3 Bft) W-NW 297 3 min 327 W/m 8,8 C 5,4 C 35,4 km/h (5 Bft)
21.04.2017 17:09 11,2 C 85 % 1020,3 hPa 0,0 l/m 15,7 km/h (3 Bft) W 271 0 min 211 W/m 8,8 C 6,3 C 27,4 km/h (5 Bft)
21.04.2017 17:12 11,2 C 85 % 1020,3 hPa 0,0 l/m 21,1 km/h (4 Bft) SW 231 0 min 188 W/m 8,8 C 4,5 C 32,2 km/h (5 Bft)
21.04.2017 17:15 11,2 C 85 % 1020,3 hPa 0,0 l/m 20,4 km/h (4 Bft) W-SW 257 0 min 234 W/m 8,8 C 4,7 C 33,8 km/h (5 Bft)
21.04.2017 17:18 11,1 C 85 % 1020,3 hPa 0,0 l/m 17,2 km/h (3 Bft) W-NW 288 3 min 271 W/m 8,7 C 5,6 C 35,4 km/h (5 Bft)
21.04.2017 17:21 11,1 C 85 % 1020,2 hPa 0,0 l/m 22,7 km/h (4 Bft) W 265 3 min 253 W/m 8,7 C 3,9 C 38,6 km/h (6 Bft)
21.04.2017 17:24 11,1 C 85 % 1020,1 hPa 0,0 l/m 21,8 km/h (4 Bft) W 271 3 min 267 W/m 8,7 C 4,2 C 45,1 km/h (6 Bft)
21.04.2017 17:27 11,2 C 85 % 1020,3 hPa 0,0 l/m 18,9 km/h (3 Bft) W-SW 251 3 min 301 W/m 8,8 C 5,2 C 33,8 km/h (5 Bft)
21.04.2017 17:30 11,2 C 85 % 1020,1 hPa 0,0 l/m 19,3 km/h (3 Bft) W 267 3 min 438 W/m 8,8 C 5,1 C 33,8 km/h (5 Bft)
21.04.2017 17:33 11,4 C 84 % 1020,1 hPa 0,0 l/m 21,6 km/h (4 Bft) W-NW 295 3 min 244 W/m 8,8 C 4,6 C 30,6 km/h (5 Bft)
21.04.2017 17:36 11,4 C 84 % 1020,1 hPa 0,0 l/m 18,8 km/h (3 Bft) W 262 3 min 322 W/m 8,8 C 5,5 C 32,2 km/h (5 Bft)
21.04.2017 17:39 11,3 C 84 % 1020,0 hPa 0,0 l/m 22,3 km/h (4 Bft) W 273 0 min 220 W/m 8,7 C 4,3 C 30,6 km/h (5 Bft)
21.04.2017 17:42 11,2 C 84 % 1020,1 hPa 0,0 l/m 22,8 km/h (4 Bft) W-NW 291 3 min 301 W/m 8,6 C 4,0 C 40,2 km/h (6 Bft)
21.04.2017 17:45 11,1 C 85 % 1020,0 hPa 0,0 l/m 21,2 km/h (4 Bft) SW 236 3 min 374 W/m 8,7 C 4,3 C 30,6 km/h (5 Bft)
21.04.2017 17:48 11,2 C 85 % 1019,9 hPa 0,0 l/m 21,1 km/h (4 Bft) W-SW 257 3 min 359 W/m 8,8 C 4,5 C 33,8 km/h (5 Bft)
21.04.2017 17:51 11,2 C 85 % 1019,9 hPa 0,0 l/m 24,4 km/h (4 Bft) W-SW 256 3 min 339 W/m 8,8 C 3,6 C 41,8 km/h (6 Bft)
21.04.2017 17:54 11,2 C 85 % 1020,0 hPa 0,0 l/m 24,7 km/h (4 Bft) W 261 3 min 357 W/m 8,8 C 3,5 C 37,0 km/h (5 Bft)
21.04.2017 17:57 11,3 C 85 % 1019,9 hPa 0,0 l/m 18,6 km/h (3 Bft) W-NW 287 3 min 357 W/m 8,9 C 5,4 C 33,8 km/h (5 Bft)
21.04.2017 18:00 11,3 C 84 % 1020,0 hPa 0,0 l/m 22,8 km/h (4 Bft) W-NW 285 3 min 357 W/m 8,7 C 4,2 C 33,8 km/h (5 Bft)
21.04.2017 18:03 11,1 C 85 % 1020,0 hPa 0,0 l/m 21,9 km/h (4 Bft) W-SW 244 3 min 223 W/m 8,7 C 4,1 C 38,6 km/h (6 Bft)
21.04.2017 18:06 11,1 C 85 % 1019,9 hPa 0,0 l/m 18,2 km/h (3 Bft) W 265 0 min 195 W/m 8,7 C 5,3 C 32,2 km/h (5 Bft)
21.04.2017 18:09 11,1 C 85 % 1019,9 hPa 0,0 l/m 22,7 km/h (4 Bft) W-SW 238 0 min 190 W/m 8,7 C 3,9 C 38,6 km/h (6 Bft)
21.04.2017 18:12 10,9 C 85 % 1019,9 hPa 0,0 l/m 23,5 km/h (4 Bft) W-SW 242 0 min 116 W/m 8,5 C 3,4 C 41,8 km/h (6 Bft)
21.04.2017 18:15 10,8 C 86 % 1019,7 hPa 0,0 l/m 22,0 km/h (4 Bft) W 269 0 min 167 W/m 8,6 C 3,7 C 35,4 km/h (5 Bft)
21.04.2017 18:18 10,7 C 86 % 1019,8 hPa 0,0 l/m 21,2 km/h (4 Bft) W-SW 252 0 min 127 W/m 8,5 C 3,8 C 41,8 km/h (6 Bft)
21.04.2017 18:21 10,7 C 86 % 1019,7 hPa 0,0 l/m 20,6 km/h (4 Bft) W-NW 284 0 min 156 W/m 8,5 C 4,0 C 32,2 km/h (5 Bft)
21.04.2017 18:24 10,6 C 87 % 1019,7 hPa 0,0 l/m 23,3 km/h (4 Bft) W-SW 254 0 min 155 W/m 8,5 C 3,1 C 41,8 km/h (6 Bft)
21.04.2017 18:27 10,6 C 87 % 1019,7 hPa 0,0 l/m 22,4 km/h (4 Bft) W-SW 252 0 min 130 W/m 8,5 C 3,3 C 45,1 km/h (6 Bft)
21.04.2017 18:30 10,6 C 87 % 1019,6 hPa 0,0 l/m 22,7 km/h (4 Bft) W 273 0 min 107 W/m 8,5 C 3,3 C 35,4 km/h (5 Bft)
21.04.2017 18:33 10,5 C 87 % 1019,6 hPa 0,0 l/m 20,3 km/h (4 Bft) W-SW 254 0 min 107 W/m 8,4 C 3,8 C 40,2 km/h (6 Bft)
21.04.2017 18:36 10,4 C 87 % 1019,6 hPa 0,0 l/m 20,2 km/h (4 Bft) N-NW 347 0 min 91 W/m 8,3 C 3,7 C 35,4 km/h (5 Bft)
21.04.2017 18:39 10,4 C 87 % 1019,5 hPa 0,0 l/m 19,5 km/h (3 Bft) W-SW 250 0 min 76 W/m 8,3 C 4,0 C 43,5 km/h (6 Bft)
21.04.2017 18:42 10,4 C 88 % 1019,5 hPa 0,0 l/m 20,7 km/h (4 Bft) W-NW 290 0 min 84 W/m 8,5 C 3,6 C 41,8 km/h (6 Bft)
21.04.2017 18:45 10,3 C 87 % 1019,4 hPa 0,0 l/m 22,4 km/h (4 Bft) W-SW 253 0 min 83 W/m 8,2 C 2,9 C 35,4 km/h (5 Bft)
21.04.2017 18:48 10,3 C 88 % 1019,6 hPa 0,0 l/m 25,3 km/h (4 Bft) W 265 0 min 65 W/m 8,4 C 2,2 C 43,5 km/h (6 Bft)
21.04.2017 18:51 10,3 C 88 % 1019,5 hPa 0,0 l/m 23,4 km/h (4 Bft) W 271 0 min 70 W/m 8,4 C 2,7 C 41,8 km/h (6 Bft)
21.04.2017 18:54 10,2 C 88 % 1019,5 hPa 0,0 l/m 19,6 km/h (3 Bft) S-SW 198 0 min 39 W/m 8,3 C 3,7 C 33,8 km/h (5 Bft)
21.04.2017 18:57 10,2 C 88 % 1019,5 hPa 0,0 l/m 20,8 km/h (4 Bft) SW 236 0 min 44 W/m 8,3 C 3,3 C 33,8 km/h (5 Bft)
21.04.2017 19:00 10,2 C 88 % 1019,4 hPa 0,0 l/m 19,3 km/h (3 Bft) SW 223 0 min 67 W/m 8,3 C 3,8 C 30,6 km/h (5 Bft)
21.04.2017 19:03 10,2 C 88 % 1019,5 hPa 0,0 l/m 19,1 km/h (3 Bft) W-SW 256 0 min 53 W/m 8,3 C 3,8 C 33,8 km/h (5 Bft)
21.04.2017 19:06 10,2 C 88 % 1019,4 hPa 0,0 l/m 22,0 km/h (4 Bft) SW 235 0 min 28 W/m 8,3 C 2,9 C 37,0 km/h (5 Bft)
21.04.2017 19:09 10,2 C 88 % 1019,2 hPa 0,0 l/m 20,1 km/h (4 Bft) W 261 0 min 25 W/m 8,3 C 3,5 C 37,0 km/h (5 Bft)
21.04.2017 19:12 10,2 C 88 % 1019,2 hPa 0,0 l/m 20,3 km/h (4 Bft) W-NW 284 0 min 37 W/m 8,3 C 3,4 C 35,4 km/h (5 Bft)
21.04.2017 19:15 10,1 C 89 % 1019,2 hPa 0,0 l/m 21,2 km/h (4 Bft) W-SW 237 0 min 35 W/m 8,4 C 3,0 C 32,2 km/h (5 Bft)
21.04.2017 19:18 10,1 C 89 % 1019,3 hPa 0,0 l/m 17,4 km/h (3 Bft) W 261 0 min 25 W/m 8,4 C 4,3 C 32,2 km/h (5 Bft)
21.04.2017 19:21 10,1 C 89 % 1019,2 hPa 0,0 l/m 20,9 km/h (4 Bft) W-NW 290 0 min 30 W/m 8,4 C 3,1 C 33,8 km/h (5 Bft)
21.04.2017 19:24 10,1 C 89 % 1019,2 hPa 0,0 l/m 18,1 km/h (3 Bft) W 275 0 min 18 W/m 8,4 C 4,1 C 30,6 km/h (5 Bft)
21.04.2017 19:27 10,1 C 89 % 1019,2 hPa 0,0 l/m 20,9 km/h (4 Bft) W-NW 292 0 min 16 W/m 8,4 C 3,1 C 32,2 km/h (5 Bft)
21.04.2017 19:30 10,0 C 89 % 1019,2 hPa 0,0 l/m 22,0 km/h (4 Bft) W 278 0 min 14 W/m 8,3 C 2,7 C 37,0 km/h (5 Bft)
21.04.2017 19:33 10,0 C 90 % 1019,1 hPa 0,0 l/m 19,5 km/h (3 Bft) W-NW 286 0 min 12 W/m 8,4 C 3,5 C 32,2 km/h (5 Bft)
21.04.2017 19:36 10,0 C 90 % 1019,2 hPa 0,0 l/m 22,0 km/h (4 Bft) W 264 0 min 11 W/m 8,4 C 2,7 C 38,6 km/h (6 Bft)
21.04.2017 19:39 10,0 C 90 % 1019,1 hPa 0,0 l/m 15,0 km/h (3 Bft) NW 309 0 min 12 W/m 8,4 C 5,1 C 29,0 km/h (5 Bft)
21.04.2017 19:42 9,9 C 91 % 1019,1 hPa 0,0 l/m 18,7 km/h (3 Bft) W 277 0 min 11 W/m 8,5 C 3,6 C 30,6 km/h (5 Bft)
21.04.2017 19:45 9,9 C 91 % 1019,1 hPa 0,0 l/m 19,2 km/h (3 Bft) W 277 0 min 7 W/m 8,5 C 3,4 C 35,4 km/h (5 Bft)
21.04.2017 19:48 9,8 C 91 % 1019,1 hPa 0,0 l/m 18,5 km/h (3 Bft) SW 221 0 min 0 W/m 8,4 C 3,5 C 33,8 km/h (5 Bft)
21.04.2017 19:51 9,8 C 92 % 1019,1 hPa 0,2 l/m 18,2 km/h (3 Bft) W-NW 287 0 min 0 W/m 8,6 C 3,6 C 33,8 km/h (5 Bft)
21.04.2017 19:54 9,7 C 92 % 1019,1 hPa 0,0 l/m 18,3 km/h (3 Bft) W-SW 241 0 min 0 W/m 8,5 C 3,5 C 29,0 km/h (5 Bft)
21.04.2017 19:57 9,7 C 92 % 1019,1 hPa 0,0 l/m 21,3 km/h (4 Bft) W-SW 240 0 min 0 W/m 8,5 C 2,5 C 35,4 km/h (5 Bft)
21.04.2017 20:00 9,6 C 92 % 1019,0 hPa 0,0 l/m 17,5 km/h (3 Bft) W-SW 248 0 min 0 W/m 8,4 C 3,6 C 32,2 km/h (5 Bft)
21.04.2017 20:03 9,6 C 93 % 1019,0 hPa 0,2 l/m 17,0 km/h (3 Bft) W-SW 254 0 min 0 W/m 8,5 C 3,8 C 33,8 km/h (5 Bft)
21.04.2017 20:06 9,6 C 93 % 1019,0 hPa 0,0 l/m 21,1 km/h (4 Bft) W 275 0 min 0 W/m 8,5 C 2,4 C 33,8 km/h (5 Bft)
21.04.2017 20:09 9,5 C 93 % 1019,0 hPa 0,0 l/m 21,7 km/h (4 Bft) W-SW 252 0 min 0 W/m 8,4 C 2,1 C 32,2 km/h (5 Bft)
21.04.2017 20:12 9,5 C 93 % 1019,1 hPa 0,2 l/m 22,4 km/h (4 Bft) W-SW 241 0 min 0 W/m 8,4 C 1,9 C 35,4 km/h (5 Bft)
21.04.2017 20:15 9,5 C 93 % 1019,0 hPa 0,0 l/m 20,9 km/h (4 Bft) W 276 0 min 0 W/m 8,4 C 2,3 C 32,2 km/h (5 Bft)
21.04.2017 20:18 9,4 C 94 % 1019,0 hPa 0,0 l/m 18,5 km/h (3 Bft) W 275 0 min 0 W/m 8,5 C 3,0 C 29,0 km/h (5 Bft)
21.04.2017 20:21 9,4 C 94 % 1019,1 hPa 0,0 l/m 18,9 km/h (3 Bft) W-SW 241 0 min 0 W/m 8,5 C 2,9 C 37,0 km/h (5 Bft)
21.04.2017 20:24 9,4 C 94 % 1019,0 hPa 0,0 l/m 21,0 km/h (4 Bft) W 259 0 min 0 W/m 8,5 C 2,2 C 38,6 km/h (6 Bft)
21.04.2017 20:27 9,4 C 94 % 1019,0 hPa 0,2 l/m 18,9 km/h (3 Bft) W 269 0 min 0 W/m 8,5 C 2,9 C 35,4 km/h (5 Bft)
21.04.2017 20:30 9,4 C 94 % 1019,1 hPa 0,0 l/m 16,1 km/h (3 Bft) W-NW 294 0 min 0 W/m 8,5 C 3,9 C 27,4 km/h (5 Bft)
21.04.2017 20:33 9,4 C 94 % 1019,1 hPa 0,0 l/m 16,4 km/h (3 Bft) W-NW 282 0 min 0 W/m 8,5 C 3,8 C 32,2 km/h (5 Bft)
21.04.2017 20:36 9,3 C 94 % 1019,1 hPa 0,0 l/m 17,6 km/h (3 Bft) W-NW 288 0 min 0 W/m 8,4 C 3,2 C 27,4 km/h (5 Bft)
21.04.2017 20:39 9,4 C 95 % 1019,1 hPa 0,0 l/m 15,1 km/h (3 Bft) N-NW 338 0 min 0 W/m 8,6 C 4,4 C 30,6 km/h (5 Bft)
21.04.2017 20:42 9,3 C 95 % 1019,2 hPa 0,0 l/m 15,9 km/h (3 Bft) W-NW 287 0 min 0 W/m 8,5 C 3,9 C 32,2 km/h (5 Bft)
21.04.2017 20:45 9,3 C 95 % 1019,2 hPa 0,0 l/m 18,1 km/h (3 Bft) N-NW 339 0 min 0 W/m 8,5 C 3,0 C 29,0 km/h (5 Bft)
21.04.2017 20:48 9,3 C 95 % 1019,2 hPa 0,2 l/m 17,9 km/h (3 Bft) NW 323 0 min 0 W/m 8,5 C 3,1 C 40,2 km/h (6 Bft)
21.04.2017 20:51 9,2 C 94 % 1019,2 hPa 0,0 l/m 15,2 km/h (3 Bft) W-SW 237 0 min 0 W/m 8,3 C 4,1 C 24,1 km/h (4 Bft)
21.04.2017 20:54 9,1 C 94 % 1019,2 hPa 0,0 l/m 14,0 km/h (3 Bft) SW 225 0 min 0 W/m 8,2 C 4,5 C 25,7 km/h (4 Bft)
21.04.2017 20:57 8,9 C 95 % 1019,3 hPa 0,0 l/m 15,8 km/h (3 Bft) NW 310 0 min 0 W/m 8,1 C 3,5 C 33,8 km/h (5 Bft)
21.04.2017 21:00 8,8 C 94 % 1019,3 hPa 0,2 l/m 18,7 km/h (3 Bft) N-NW 336 0 min 0 W/m 7,9 C 2,2 C 33,8 km/h (5 Bft)
21.04.2017 21:03 8,6 C 94 % 1019,4 hPa 0,0 l/m 18,5 km/h (3 Bft) NW 311 0 min 0 W/m 7,7 C 2,0 C 37,0 km/h (5 Bft)
21.04.2017 21:06 8,6 C 94 % 1019,4 hPa 0,0 l/m 21,4 km/h (4 Bft) W 267 0 min 0 W/m 7,7 C 1,0 C 33,8 km/h (5 Bft)
21.04.2017 21:09 8,6 C 94 % 1019,5 hPa 0,0 l/m 15,1 km/h (3 Bft) NW 322 0 min 0 W/m 7,7 C 3,4 C 27,4 km/h (5 Bft)
21.04.2017 21:12 8,4 C 94 % 1019,5 hPa 0,0 l/m 18,5 km/h (3 Bft) NW 313 0 min 0 W/m 7,5 C 1,8 C 30,6 km/h (5 Bft)
21.04.2017 21:15 8,3 C 94 % 1019,5 hPa 0,0 l/m 18,9 km/h (3 Bft) NW 323 0 min 0 W/m 7,4 C 1,5 C 33,8 km/h (5 Bft)
21.04.2017 21:18 8,3 C 94 % 1019,4 hPa 0,0 l/m 13,7 km/h (3 Bft) W-NW 284 0 min 0 W/m 7,4 C 3,7 C 22,5 km/h (4 Bft)
21.04.2017 21:21 8,4 C 95 % 1019,6 hPa 0,0 l/m 15,1 km/h (3 Bft) W 273 0 min 0 W/m 7,6 C 3,2 C 32,2 km/h (5 Bft)
21.04.2017 21:24 8,4 C 94 % 1019,5 hPa 0,0 l/m 13,0 km/h (3 Bft) W-NW 303 0 min 0 W/m 7,5 C 4,1 C 24,1 km/h (4 Bft)
21.04.2017 21:27 8,3 C 94 % 1019,5 hPa 0,0 l/m 15,2 km/h (3 Bft) NW 311 0 min 0 W/m 7,4 C 3,0 C 29,0 km/h (5 Bft)
21.04.2017 21:30 8,3 C 94 % 1019,6 hPa 0,0 l/m 15,6 km/h (3 Bft) N-NW 328 0 min 0 W/m 7,4 C 2,8 C 27,4 km/h (5 Bft)
21.04.2017 21:33 8,3 C 94 % 1019,6 hPa 0,0 l/m 17,2 km/h (3 Bft) N-NW 334 0 min 0 W/m 7,4 C 2,1 C 27,4 km/h (5 Bft)
21.04.2017 21:36 8,2 C 94 % 1019,6 hPa 0,0 l/m 18,6 km/h (3 Bft) NW 315 0 min 0 W/m 7,3 C 1,5 C 30,6 km/h (5 Bft)
21.04.2017 21:39 8,1 C 94 % 1019,6 hPa 0,0 l/m 15,9 km/h (3 Bft) W-NW 288 0 min 0 W/m 7,2 C 2,4 C 32,2 km/h (5 Bft)
21.04.2017 21:42 8,1 C 94 % 1019,7 hPa 0,0 l/m 18,8 km/h (3 Bft) W 261 0 min 0 W/m 7,2 C 1,3 C 30,6 km/h (5 Bft)
21.04.2017 21:45 7,9 C 93 % 1019,7 hPa 0,0 l/m 20,1 km/h (4 Bft) W-NW 300 0 min 0 W/m 6,8 C 0,5 C 32,2 km/h (5 Bft)
21.04.2017 21:48 7,9 C 93 % 1019,8 hPa 0,0 l/m 20,6 km/h (4 Bft) NW 312 0 min 0 W/m 6,8 C 0,4 C 35,4 km/h (5 Bft)
21.04.2017 21:51 7,9 C 93 % 1019,8 hPa 0,0 l/m 20,2 km/h (4 Bft) W-NW 302 0 min 0 W/m 6,8 C 0,5 C 33,8 km/h (5 Bft)
21.04.2017 21:54 7,8 C 92 % 1019,8 hPa 0,0 l/m 21,8 km/h (4 Bft) N-NW 339 0 min 0 W/m 6,6 C -0,2 C 35,4 km/h (5 Bft)
21.04.2017 21:57 7,9 C 92 % 1019,9 hPa 0,0 l/m 15,7 km/h (3 Bft) NW 306 0 min 0 W/m 6,7 C 2,3 C 22,5 km/h (4 Bft)
21.04.2017 22:00 7,9 C 92 % 1019,8 hPa 0,0 l/m 19,3 km/h (3 Bft) W 276 0 min 0 W/m 6,7 C 0,8 C 33,8 km/h (5 Bft)
21.04.2017 22:03 7,9 C 92 % 1019,8 hPa 0,0 l/m 17,5 km/h (3 Bft) NW 323 0 min 0 W/m 6,7 C 1,5 C 32,2 km/h (5 Bft)
21.04.2017 22:06 8,0 C 92 % 1019,9 hPa 0,0 l/m 18,3 km/h (3 Bft) W-NW 285 0 min 0 W/m 6,8 C 1,3 C 33,8 km/h (5 Bft)
21.04.2017 22:09 8,1 C 92 % 1019,9 hPa 0,0 l/m 16,4 km/h (3 Bft) W-NW 286 0 min 0 W/m 6,9 C 2,2 C 27,4 km/h (5 Bft)
21.04.2017 22:12 8,1 C 91 % 1019,8 hPa 0,0 l/m 15,8 km/h (3 Bft) NW 322 0 min 0 W/m 6,7 C 2,5 C 29,0 km/h (5 Bft)
21.04.2017 22:15 8,1 C 91 % 1019,8 hPa 0,0 l/m 16,2 km/h (3 Bft) SW 236 0 min 0 W/m 6,7 C 2,3 C 29,0 km/h (5 Bft)
21.04.2017 22:18 8,0 C 91 % 1019,9 hPa 0,0 l/m 18,5 km/h (3 Bft) W-NW 288 0 min 0 W/m 6,6 C 1,3 C 33,8 km/h (5 Bft)
21.04.2017 22:21 8,1 C 91 % 1019,8 hPa 0,0 l/m 13,0 km/h (3 Bft) W 261 0 min 0 W/m 6,7 C 3,8 C 32,2 km/h (5 Bft)
21.04.2017 22:24 8,0 C 91 % 1019,9 hPa 0,0 l/m 16,7 km/h (3 Bft) W 273 0 min 0 W/m 6,6 C 2,0 C 30,6 km/h (5 Bft)
21.04.2017 22:27 7,9 C 90 % 1019,9 hPa 0,0 l/m 20,3 km/h (4 Bft) NW 321 0 min 0 W/m 6,4 C 0,5 C 32,2 km/h (5 Bft)
21.04.2017 22:30 7,8 C 89 % 1019,9 hPa 0,0 l/m 16,5 km/h (3 Bft) W-NW 300 0 min 0 W/m 6,1 C 1,8 C 35,4 km/h (5 Bft)
21.04.2017 22:33 7,8 C 89 % 1019,9 hPa 0,0 l/m 20,1 km/h (4 Bft) N-NW 339 0 min 0 W/m 6,1 C 0,4 C 32,2 km/h (5 Bft)
21.04.2017 22:36 7,8 C 89 % 1019,9 hPa 0,0 l/m 15,1 km/h (3 Bft) W-SW 247 0 min 0 W/m 6,1 C 2,4 C 30,6 km/h (5 Bft)
21.04.2017 22:39 7,9 C 89 % 1019,9 hPa 0,0 l/m 16,4 km/h (3 Bft) NW 306 0 min 0 W/m 6,2 C 2,0 C 29,0 km/h (5 Bft)
21.04.2017 22:42 7,9 C 89 % 1019,9 hPa 0,0 l/m 12,9 km/h (3 Bft) N 355 0 min 0 W/m 6,2 C 3,6 C 29,0 km/h (5 Bft)
21.04.2017 22:45 7,9 C 89 % 1019,9 hPa 0,0 l/m 16,6 km/h (3 Bft) N-NW 342 0 min 0 W/m 6,2 C 1,9 C 32,2 km/h (5 Bft)
21.04.2017 22:48 7,8 C 88 % 1020,0 hPa 0,0 l/m 15,7 km/h (3 Bft) W-NW 287 0 min 0 W/m 5,9 C 2,2 C 29,0 km/h (5 Bft)
21.04.2017 22:51 7,8 C 88 % 1020,0 hPa 0,0 l/m 14,1 km/h (3 Bft) W-SW 248 0 min 0 W/m 5,9 C 2,9 C 33,8 km/h (5 Bft)
21.04.2017 22:54 7,7 C 87 % 1020,0 hPa 0,0 l/m 17,8 km/h (3 Bft) W-SW 251 0 min 0 W/m 5,7 C 1,1 C 32,2 km/h (5 Bft)
21.04.2017 22:57 7,8 C 88 % 1020,0 hPa 0,0 l/m 15,3 km/h (3 Bft) W-NW 296 0 min 0 W/m 5,9 C 2,3 C 27,4 km/h (5 Bft)
21.04.2017 23:00 7,8 C 88 % 1020,0 hPa 0,0 l/m 18,3 km/h (3 Bft) W-NW 290 0 min 0 W/m 5,9 C 1,1 C 35,4 km/h (5 Bft)
21.04.2017 23:03 7,8 C 88 % 1020,0 hPa 0,0 l/m 15,9 km/h (3 Bft) NW 309 0 min 0 W/m 5,9 C 2,1 C 33,8 km/h (5 Bft)
21.04.2017 23:06 7,8 C 88 % 1020,0 hPa 0,0 l/m 11,0 km/h (2 Bft) NW 312 0 min 0 W/m 5,9 C 4,6 C 27,4 km/h (5 Bft)
21.04.2017 23:09 7,7 C 88 % 1020,0 hPa 0,0 l/m 12,0 km/h (2 Bft) NW 310 0 min 0 W/m 5,8 C 3,9 C 29,0 km/h (5 Bft)
21.04.2017 23:12 7,7 C 88 % 1020,0 hPa 0,0 l/m 12,8 km/h (3 Bft) N-NW 348 0 min 0 W/m 5,8 C 3,4 C 25,7 km/h (4 Bft)
21.04.2017 23:15 7,7 C 87 % 1020,0 hPa 0,0 l/m 15,1 km/h (3 Bft) W 275 0 min 0 W/m 5,7 C 2,3 C 33,8 km/h (5 Bft)
21.04.2017 23:18 7,7 C 87 % 1020,1 hPa 0,0 l/m 15,5 km/h (3 Bft) W-NW 301 0 min 0 W/m 5,7 C 2,1 C 30,6 km/h (5 Bft)
21.04.2017 23:21 7,7 C 87 % 1020,1 hPa 0,0 l/m 13,4 km/h (3 Bft) W 269 0 min 0 W/m 5,7 C 3,1 C 32,2 km/h (5 Bft)
21.04.2017 23:24 7,7 C 87 % 1020,1 hPa 0,0 l/m 13,6 km/h (3 Bft) N-NW 338 0 min 0 W/m 5,7 C 3,0 C 32,2 km/h (5 Bft)
21.04.2017 23:27 7,7 C 87 % 1020,2 hPa 0,0 l/m 15,2 km/h (3 Bft) W-SW 238 0 min 0 W/m 5,7 C 2,3 C 29,0 km/h (5 Bft)
21.04.2017 23:30 7,7 C 87 % 1020,3 hPa 0,0 l/m 13,8 km/h (3 Bft) W 281 0 min 0 W/m 5,7 C 2,9 C 25,7 km/h (4 Bft)
21.04.2017 23:33 7,7 C 87 % 1020,3 hPa 0,0 l/m 17,4 km/h (3 Bft) W 273 0 min 0 W/m 5,7 C 1,3 C 35,4 km/h (5 Bft)
21.04.2017 23:36 7,7 C 86 % 1020,3 hPa 0,0 l/m 15,0 km/h (3 Bft) W-NW 301 0 min 0 W/m 5,5 C 2,3 C 30,6 km/h (5 Bft)
21.04.2017 23:39 7,7 C 86 % 1020,4 hPa 0,0 l/m 14,5 km/h (3 Bft) W-SW 252 0 min 0 W/m 5,5 C 2,6 C 33,8 km/h (5 Bft)
21.04.2017 23:42 7,8 C 86 % 1020,3 hPa 0,0 l/m 16,5 km/h (3 Bft) N-NW 333 0 min 0 W/m 5,6 C 1,8 C 29,0 km/h (5 Bft)
21.04.2017 23:45 7,8 C 85 % 1020,3 hPa 0,0 l/m 19,4 km/h (3 Bft) N-NW 336 0 min 0 W/m 5,4 C 0,7 C 32,2 km/h (5 Bft)
21.04.2017 23:48 7,8 C 85 % 1020,3 hPa 0,0 l/m 15,8 km/h (3 Bft) W-NW 294 0 min 0 W/m 5,4 C 2,1 C 30,6 km/h (5 Bft)
21.04.2017 23:51 7,8 C 84 % 1020,3 hPa 0,0 l/m 14,7 km/h (3 Bft) N-NW 327 0 min 0 W/m 5,3 C 2,6 C 27,4 km/h (5 Bft)
21.04.2017 23:54 7,8 C 84 % 1020,2 hPa 0,0 l/m 18,3 km/h (3 Bft) W-NW 286 0 min 0 W/m 5,3 C 1,1 C 32,2 km/h (5 Bft)
21.04.2017 23:57 7,8 C 83 % 1020,3 hPa 0,0 l/m 14,9 km/h (3 Bft) NW 309 0 min 0 W/m 5,1 C 2,5 C 27,4 km/h (5 Bft)
_ Min-Zeit 22:54 14:30 20:00 - 05:57 - - - - 23:57 21:54 05:57
Minimum _ 7,7 C 77 % 1019,0 hPa - 6,5 km/h (2 Bft) - - - - 5,1 C -0,2 C 12,9 km/h (3 Bft)
_ Max-Zeit 14:15 04:15 00:00 19:51 18:48 - - 10:21 11:21 14:12 12:27 14:30
Maximum _ 13,2 C 95 % 1028,9 hPa 0,2 l/m 25,3 km/h
W (4 Bft)
- - 3 min 496 W/m 10,5 C 10,2 C 48,3 km/h
W (6 Bft)
Durchschnitt _ 9,8 C 89 % 1023,2 hPa #1,2 l/m 16,1 km/h (3 Bft) SW - #2:45 h 184 W/m 8,1 C 4,7 C 27,8 km/h (5 Bft)
2017 Cux-Wetter.de -Die Nutzung der Wetterdaten nur mit ausdrcklicher Genehmigung